<?xml version="1.0" encoding="UTF-8" standalone="no" ?>
<gpx xmlns="http://www.topografix.com/GPX/1/1" xmlns:xsi="http://www.w3.org/2001/XMLSchema-instance" xsi:schemaLocation="http://www.topografix.com/GPX/1/1 http://www.topografix.com/GPX/1/1/gpx.xsd" version="1.1" creator="VisuGPX - https://www.visugpx.com">
  <metadata>
    <name>Sortie humour ?</name>
  </metadata>
  <trk>
    <name><![CDATA[Sortie humour ?_1]]></name>
    <trkseg>
      <trkpt lat="45.43433" lon="4.72279">
        <ele>355</ele>
        <time>2021-05-07T14:45:00Z</time>
      </trkpt>
      <trkpt lat="45.4344" lon="4.72278">
        <ele>353</ele>
        <time>2021-05-07T14:45:03Z</time>
      </trkpt>
      <trkpt lat="45.43445" lon="4.72277">
        <ele>353</ele>
        <time>2021-05-07T14:45:05Z</time>
      </trkpt>
      <trkpt lat="45.43452" lon="4.72278">
        <ele>353</ele>
        <time>2021-05-07T14:45:07Z</time>
      </trkpt>
      <trkpt lat="45.43458" lon="4.72278">
        <ele>352</ele>
        <time>2021-05-07T14:45:09Z</time>
      </trkpt>
      <trkpt lat="45.43463" lon="4.72278">
        <ele>352</ele>
        <time>2021-05-07T14:45:11Z</time>
      </trkpt>
      <trkpt lat="45.4347" lon="4.72278">
        <ele>352</ele>
        <time>2021-05-07T14:45:13Z</time>
      </trkpt>
      <trkpt lat="45.43477" lon="4.72278">
        <ele>352</ele>
        <time>2021-05-07T14:45:15Z</time>
      </trkpt>
      <trkpt lat="45.43484" lon="4.72278">
        <ele>352</ele>
        <time>2021-05-07T14:45:17Z</time>
      </trkpt>
      <trkpt lat="45.4349" lon="4.7228">
        <ele>353</ele>
        <time>2021-05-07T14:45:20Z</time>
      </trkpt>
      <trkpt lat="45.43496" lon="4.72286">
        <ele>353</ele>
        <time>2021-05-07T14:45:21Z</time>
      </trkpt>
      <trkpt lat="45.43499" lon="4.72289">
        <ele>351</ele>
        <time>2021-05-07T14:45:22Z</time>
      </trkpt>
      <trkpt lat="45.43504" lon="4.72295">
        <ele>350</ele>
        <time>2021-05-07T14:45:24Z</time>
      </trkpt>
      <trkpt lat="45.43507" lon="4.72298">
        <ele>350</ele>
        <time>2021-05-07T14:45:25Z</time>
      </trkpt>
      <trkpt lat="45.43511" lon="4.723">
        <ele>350</ele>
        <time>2021-05-07T14:45:26Z</time>
      </trkpt>
      <trkpt lat="45.43517" lon="4.72306">
        <ele>350</ele>
        <time>2021-05-07T14:45:28Z</time>
      </trkpt>
      <trkpt lat="45.4352" lon="4.72309">
        <ele>350</ele>
        <time>2021-05-07T14:45:29Z</time>
      </trkpt>
      <trkpt lat="45.43524" lon="4.72312">
        <ele>350</ele>
        <time>2021-05-07T14:45:30Z</time>
      </trkpt>
      <trkpt lat="45.43527" lon="4.72315">
        <ele>350</ele>
        <time>2021-05-07T14:45:31Z</time>
      </trkpt>
      <trkpt lat="45.4353" lon="4.72318">
        <ele>349</ele>
        <time>2021-05-07T14:45:32Z</time>
      </trkpt>
      <trkpt lat="45.43533" lon="4.72321">
        <ele>349</ele>
        <time>2021-05-07T14:45:33Z</time>
      </trkpt>
      <trkpt lat="45.43539" lon="4.72326">
        <ele>349</ele>
        <time>2021-05-07T14:45:35Z</time>
      </trkpt>
      <trkpt lat="45.43542" lon="4.72329">
        <ele>349</ele>
        <time>2021-05-07T14:45:36Z</time>
      </trkpt>
      <trkpt lat="45.43545" lon="4.72332">
        <ele>349</ele>
        <time>2021-05-07T14:45:37Z</time>
      </trkpt>
      <trkpt lat="45.43548" lon="4.72336">
        <ele>348</ele>
        <time>2021-05-07T14:45:38Z</time>
      </trkpt>
      <trkpt lat="45.43551" lon="4.72339">
        <ele>348</ele>
        <time>2021-05-07T14:45:39Z</time>
      </trkpt>
      <trkpt lat="45.43554" lon="4.72342">
        <ele>348</ele>
        <time>2021-05-07T14:45:40Z</time>
      </trkpt>
      <trkpt lat="45.43557" lon="4.72346">
        <ele>348</ele>
        <time>2021-05-07T14:45:41Z</time>
      </trkpt>
      <trkpt lat="45.43562" lon="4.72353">
        <ele>348</ele>
        <time>2021-05-07T14:45:43Z</time>
      </trkpt>
      <trkpt lat="45.43567" lon="4.7236">
        <ele>348</ele>
        <time>2021-05-07T14:45:45Z</time>
      </trkpt>
      <trkpt lat="45.43572" lon="4.72368">
        <ele>347</ele>
        <time>2021-05-07T14:45:47Z</time>
      </trkpt>
      <trkpt lat="45.43576" lon="4.72375">
        <ele>347</ele>
        <time>2021-05-07T14:45:49Z</time>
      </trkpt>
      <trkpt lat="45.4358" lon="4.72383">
        <ele>346</ele>
        <time>2021-05-07T14:45:51Z</time>
      </trkpt>
      <trkpt lat="45.43583" lon="4.72387">
        <ele>346</ele>
        <time>2021-05-07T14:45:52Z</time>
      </trkpt>
      <trkpt lat="45.43585" lon="4.72391">
        <ele>346</ele>
        <time>2021-05-07T14:45:53Z</time>
      </trkpt>
      <trkpt lat="45.4359" lon="4.72398">
        <ele>345</ele>
        <time>2021-05-07T14:45:55Z</time>
      </trkpt>
      <trkpt lat="45.43594" lon="4.72405">
        <ele>345</ele>
        <time>2021-05-07T14:45:57Z</time>
      </trkpt>
      <trkpt lat="45.43599" lon="4.72412">
        <ele>345</ele>
        <time>2021-05-07T14:45:59Z</time>
      </trkpt>
      <trkpt lat="45.43605" lon="4.72418">
        <ele>344</ele>
        <time>2021-05-07T14:46:01Z</time>
      </trkpt>
      <trkpt lat="45.4361" lon="4.72424">
        <ele>343</ele>
        <time>2021-05-07T14:46:03Z</time>
      </trkpt>
      <trkpt lat="45.43614" lon="4.7243">
        <ele>343</ele>
        <time>2021-05-07T14:46:05Z</time>
      </trkpt>
      <trkpt lat="45.4362" lon="4.72435">
        <ele>343</ele>
        <time>2021-05-07T14:46:07Z</time>
      </trkpt>
      <trkpt lat="45.43625" lon="4.7244">
        <ele>343</ele>
        <time>2021-05-07T14:46:09Z</time>
      </trkpt>
      <trkpt lat="45.43631" lon="4.72445">
        <ele>343</ele>
        <time>2021-05-07T14:46:11Z</time>
      </trkpt>
      <trkpt lat="45.43637" lon="4.72449">
        <ele>343</ele>
        <time>2021-05-07T14:46:13Z</time>
      </trkpt>
      <trkpt lat="45.43643" lon="4.72453">
        <ele>343</ele>
        <time>2021-05-07T14:46:15Z</time>
      </trkpt>
      <trkpt lat="45.43646" lon="4.72456">
        <ele>344</ele>
        <time>2021-05-07T14:46:16Z</time>
      </trkpt>
      <trkpt lat="45.43649" lon="4.72458">
        <ele>344</ele>
        <time>2021-05-07T14:46:17Z</time>
      </trkpt>
      <trkpt lat="45.43655" lon="4.72463">
        <ele>343</ele>
        <time>2021-05-07T14:46:19Z</time>
      </trkpt>
      <trkpt lat="45.43661" lon="4.72467">
        <ele>343</ele>
        <time>2021-05-07T14:46:21Z</time>
      </trkpt>
      <trkpt lat="45.43667" lon="4.72473">
        <ele>342</ele>
        <time>2021-05-07T14:46:23Z</time>
      </trkpt>
      <trkpt lat="45.43672" lon="4.72478">
        <ele>342</ele>
        <time>2021-05-07T14:46:25Z</time>
      </trkpt>
      <trkpt lat="45.43678" lon="4.72484">
        <ele>342</ele>
        <time>2021-05-07T14:46:27Z</time>
      </trkpt>
      <trkpt lat="45.43683" lon="4.72489">
        <ele>342</ele>
        <time>2021-05-07T14:46:29Z</time>
      </trkpt>
      <trkpt lat="45.43689" lon="4.72495">
        <ele>342</ele>
        <time>2021-05-07T14:46:31Z</time>
      </trkpt>
      <trkpt lat="45.43691" lon="4.72499">
        <ele>342</ele>
        <time>2021-05-07T14:46:32Z</time>
      </trkpt>
      <trkpt lat="45.43694" lon="4.72502">
        <ele>342</ele>
        <time>2021-05-07T14:46:33Z</time>
      </trkpt>
      <trkpt lat="45.43697" lon="4.72506">
        <ele>342</ele>
        <time>2021-05-07T14:46:34Z</time>
      </trkpt>
      <trkpt lat="45.43703" lon="4.72512">
        <ele>342</ele>
        <time>2021-05-07T14:46:36Z</time>
      </trkpt>
      <trkpt lat="45.43706" lon="4.72516">
        <ele>341</ele>
        <time>2021-05-07T14:46:37Z</time>
      </trkpt>
      <trkpt lat="45.43711" lon="4.72522">
        <ele>340</ele>
        <time>2021-05-07T14:46:39Z</time>
      </trkpt>
      <trkpt lat="45.43716" lon="4.72529">
        <ele>340</ele>
        <time>2021-05-07T14:46:41Z</time>
      </trkpt>
      <trkpt lat="45.43721" lon="4.72536">
        <ele>341</ele>
        <time>2021-05-07T14:46:43Z</time>
      </trkpt>
      <trkpt lat="45.43725" lon="4.72542">
        <ele>341</ele>
        <time>2021-05-07T14:46:45Z</time>
      </trkpt>
      <trkpt lat="45.43731" lon="4.72549">
        <ele>340</ele>
        <time>2021-05-07T14:46:47Z</time>
      </trkpt>
      <trkpt lat="45.43733" lon="4.72553">
        <ele>340</ele>
        <time>2021-05-07T14:46:48Z</time>
      </trkpt>
      <trkpt lat="45.43736" lon="4.72556">
        <ele>340</ele>
        <time>2021-05-07T14:46:49Z</time>
      </trkpt>
      <trkpt lat="45.43739" lon="4.72559">
        <ele>340</ele>
        <time>2021-05-07T14:46:50Z</time>
      </trkpt>
      <trkpt lat="45.43745" lon="4.72565">
        <ele>340</ele>
        <time>2021-05-07T14:46:52Z</time>
      </trkpt>
      <trkpt lat="45.4375" lon="4.72571">
        <ele>339</ele>
        <time>2021-05-07T14:46:54Z</time>
      </trkpt>
      <trkpt lat="45.43755" lon="4.72577">
        <ele>339</ele>
        <time>2021-05-07T14:46:56Z</time>
      </trkpt>
      <trkpt lat="45.43759" lon="4.72585">
        <ele>338</ele>
        <time>2021-05-07T14:46:58Z</time>
      </trkpt>
      <trkpt lat="45.43763" lon="4.72593">
        <ele>338</ele>
        <time>2021-05-07T14:47:00Z</time>
      </trkpt>
      <trkpt lat="45.43767" lon="4.72601">
        <ele>336</ele>
        <time>2021-05-07T14:47:02Z</time>
      </trkpt>
      <trkpt lat="45.4377" lon="4.72605">
        <ele>336</ele>
        <time>2021-05-07T14:47:03Z</time>
      </trkpt>
      <trkpt lat="45.43772" lon="4.72609">
        <ele>336</ele>
        <time>2021-05-07T14:47:04Z</time>
      </trkpt>
      <trkpt lat="45.43775" lon="4.72613">
        <ele>336</ele>
        <time>2021-05-07T14:47:05Z</time>
      </trkpt>
      <trkpt lat="45.43779" lon="4.7262">
        <ele>336</ele>
        <time>2021-05-07T14:47:07Z</time>
      </trkpt>
      <trkpt lat="45.43785" lon="4.72627">
        <ele>335</ele>
        <time>2021-05-07T14:47:09Z</time>
      </trkpt>
      <trkpt lat="45.43791" lon="4.72632">
        <ele>334</ele>
        <time>2021-05-07T14:47:11Z</time>
      </trkpt>
      <trkpt lat="45.43797" lon="4.72637">
        <ele>335</ele>
        <time>2021-05-07T14:47:14Z</time>
      </trkpt>
      <trkpt lat="45.43804" lon="4.7264">
        <ele>334</ele>
        <time>2021-05-07T14:47:15Z</time>
      </trkpt>
      <trkpt lat="45.4381" lon="4.72643">
        <ele>334</ele>
        <time>2021-05-07T14:47:17Z</time>
      </trkpt>
      <trkpt lat="45.43816" lon="4.72647">
        <ele>334</ele>
        <time>2021-05-07T14:47:19Z</time>
      </trkpt>
      <trkpt lat="45.43822" lon="4.7265">
        <ele>334</ele>
        <time>2021-05-07T14:47:21Z</time>
      </trkpt>
      <trkpt lat="45.43828" lon="4.72654">
        <ele>334</ele>
        <time>2021-05-07T14:47:23Z</time>
      </trkpt>
      <trkpt lat="45.43833" lon="4.7266">
        <ele>333</ele>
        <time>2021-05-07T14:47:25Z</time>
      </trkpt>
      <trkpt lat="45.43838" lon="4.72664">
        <ele>333</ele>
        <time>2021-05-07T14:47:27Z</time>
      </trkpt>
      <trkpt lat="45.43843" lon="4.72665">
        <ele>333</ele>
        <time>2021-05-07T14:47:29Z</time>
      </trkpt>
      <trkpt lat="45.43849" lon="4.72665">
        <ele>333</ele>
        <time>2021-05-07T14:47:31Z</time>
      </trkpt>
      <trkpt lat="45.43855" lon="4.72665">
        <ele>333</ele>
        <time>2021-05-07T14:47:33Z</time>
      </trkpt>
      <trkpt lat="45.43861" lon="4.72666">
        <ele>334</ele>
        <time>2021-05-07T14:47:35Z</time>
      </trkpt>
      <trkpt lat="45.43866" lon="4.72667">
        <ele>335</ele>
        <time>2021-05-07T14:47:37Z</time>
      </trkpt>
      <trkpt lat="45.43872" lon="4.72668">
        <ele>335</ele>
        <time>2021-05-07T14:47:39Z</time>
      </trkpt>
      <trkpt lat="45.43877" lon="4.72668">
        <ele>335</ele>
        <time>2021-05-07T14:47:41Z</time>
      </trkpt>
      <trkpt lat="45.43882" lon="4.72669">
        <ele>336</ele>
        <time>2021-05-07T14:47:43Z</time>
      </trkpt>
      <trkpt lat="45.43887" lon="4.7267">
        <ele>336</ele>
        <time>2021-05-07T14:47:45Z</time>
      </trkpt>
      <trkpt lat="45.43892" lon="4.72671">
        <ele>336</ele>
        <time>2021-05-07T14:47:47Z</time>
      </trkpt>
      <trkpt lat="45.43897" lon="4.72671">
        <ele>336</ele>
        <time>2021-05-07T14:47:49Z</time>
      </trkpt>
      <trkpt lat="45.43902" lon="4.7267">
        <ele>336</ele>
        <time>2021-05-07T14:47:52Z</time>
      </trkpt>
      <trkpt lat="45.43908" lon="4.72671">
        <ele>336</ele>
        <time>2021-05-07T14:47:53Z</time>
      </trkpt>
      <trkpt lat="45.43913" lon="4.72673">
        <ele>337</ele>
        <time>2021-05-07T14:47:55Z</time>
      </trkpt>
      <trkpt lat="45.43919" lon="4.72674">
        <ele>337</ele>
        <time>2021-05-07T14:47:57Z</time>
      </trkpt>
      <trkpt lat="45.43924" lon="4.72675">
        <ele>337</ele>
        <time>2021-05-07T14:47:59Z</time>
      </trkpt>
      <trkpt lat="45.4393" lon="4.72675">
        <ele>338</ele>
        <time>2021-05-07T14:48:01Z</time>
      </trkpt>
      <trkpt lat="45.43935" lon="4.72675">
        <ele>338</ele>
        <time>2021-05-07T14:48:03Z</time>
      </trkpt>
      <trkpt lat="45.4394" lon="4.72675">
        <ele>338</ele>
        <time>2021-05-07T14:48:05Z</time>
      </trkpt>
      <trkpt lat="45.43946" lon="4.72676">
        <ele>338</ele>
        <time>2021-05-07T14:48:07Z</time>
      </trkpt>
      <trkpt lat="45.43952" lon="4.72677">
        <ele>339</ele>
        <time>2021-05-07T14:48:09Z</time>
      </trkpt>
      <trkpt lat="45.43958" lon="4.72679">
        <ele>339</ele>
        <time>2021-05-07T14:48:11Z</time>
      </trkpt>
      <trkpt lat="45.43964" lon="4.7268">
        <ele>339</ele>
        <time>2021-05-07T14:48:13Z</time>
      </trkpt>
      <trkpt lat="45.43969" lon="4.72681">
        <ele>339</ele>
        <time>2021-05-07T14:48:15Z</time>
      </trkpt>
      <trkpt lat="45.43975" lon="4.72683">
        <ele>339</ele>
        <time>2021-05-07T14:48:17Z</time>
      </trkpt>
      <trkpt lat="45.43981" lon="4.72684">
        <ele>340</ele>
        <time>2021-05-07T14:48:19Z</time>
      </trkpt>
      <trkpt lat="45.43987" lon="4.72686">
        <ele>340</ele>
        <time>2021-05-07T14:48:21Z</time>
      </trkpt>
      <trkpt lat="45.43992" lon="4.72687">
        <ele>340</ele>
        <time>2021-05-07T14:48:23Z</time>
      </trkpt>
      <trkpt lat="45.43996" lon="4.7269">
        <ele>341</ele>
        <time>2021-05-07T14:48:25Z</time>
      </trkpt>
      <trkpt lat="45.44" lon="4.72691">
        <ele>341</ele>
        <time>2021-05-07T14:48:28Z</time>
      </trkpt>
      <trkpt lat="45.44004" lon="4.72693">
        <ele>341</ele>
        <time>2021-05-07T14:48:31Z</time>
      </trkpt>
      <trkpt lat="45.44009" lon="4.72694">
        <ele>341</ele>
        <time>2021-05-07T14:48:34Z</time>
      </trkpt>
      <trkpt lat="45.44014" lon="4.72694">
        <ele>342</ele>
        <time>2021-05-07T14:48:37Z</time>
      </trkpt>
      <trkpt lat="45.44019" lon="4.72695">
        <ele>342</ele>
        <time>2021-05-07T14:48:40Z</time>
      </trkpt>
      <trkpt lat="45.44024" lon="4.72698">
        <ele>342</ele>
        <time>2021-05-07T14:48:43Z</time>
      </trkpt>
      <trkpt lat="45.44029" lon="4.727">
        <ele>342</ele>
        <time>2021-05-07T14:48:46Z</time>
      </trkpt>
      <trkpt lat="45.44033" lon="4.72701">
        <ele>342</ele>
        <time>2021-05-07T14:48:48Z</time>
      </trkpt>
      <trkpt lat="45.44038" lon="4.72703">
        <ele>342</ele>
        <time>2021-05-07T14:48:50Z</time>
      </trkpt>
      <trkpt lat="45.44043" lon="4.72706">
        <ele>343</ele>
        <time>2021-05-07T14:48:52Z</time>
      </trkpt>
      <trkpt lat="45.44049" lon="4.72709">
        <ele>343</ele>
        <time>2021-05-07T14:48:54Z</time>
      </trkpt>
      <trkpt lat="45.44054" lon="4.72712">
        <ele>344</ele>
        <time>2021-05-07T14:48:56Z</time>
      </trkpt>
      <trkpt lat="45.44059" lon="4.72715">
        <ele>344</ele>
        <time>2021-05-07T14:48:58Z</time>
      </trkpt>
      <trkpt lat="45.44065" lon="4.72717">
        <ele>344</ele>
        <time>2021-05-07T14:49:00Z</time>
      </trkpt>
      <trkpt lat="45.44071" lon="4.7272">
        <ele>344</ele>
        <time>2021-05-07T14:49:02Z</time>
      </trkpt>
      <trkpt lat="45.44077" lon="4.72723">
        <ele>344</ele>
        <time>2021-05-07T14:49:04Z</time>
      </trkpt>
      <trkpt lat="45.44082" lon="4.72726">
        <ele>345</ele>
        <time>2021-05-07T14:49:06Z</time>
      </trkpt>
      <trkpt lat="45.44087" lon="4.72728">
        <ele>345</ele>
        <time>2021-05-07T14:49:08Z</time>
      </trkpt>
      <trkpt lat="45.44092" lon="4.72731">
        <ele>345</ele>
        <time>2021-05-07T14:49:10Z</time>
      </trkpt>
      <trkpt lat="45.44097" lon="4.72733">
        <ele>345</ele>
        <time>2021-05-07T14:49:12Z</time>
      </trkpt>
      <trkpt lat="45.44102" lon="4.72736">
        <ele>345</ele>
        <time>2021-05-07T14:49:14Z</time>
      </trkpt>
      <trkpt lat="45.44107" lon="4.7274">
        <ele>346</ele>
        <time>2021-05-07T14:49:16Z</time>
      </trkpt>
      <trkpt lat="45.44112" lon="4.72742">
        <ele>344</ele>
        <time>2021-05-07T14:49:18Z</time>
      </trkpt>
      <trkpt lat="45.44118" lon="4.72745">
        <ele>345</ele>
        <time>2021-05-07T14:49:20Z</time>
      </trkpt>
      <trkpt lat="45.44124" lon="4.72748">
        <ele>345</ele>
        <time>2021-05-07T14:49:22Z</time>
      </trkpt>
      <trkpt lat="45.44129" lon="4.72751">
        <ele>345</ele>
        <time>2021-05-07T14:49:24Z</time>
      </trkpt>
      <trkpt lat="45.44135" lon="4.72754">
        <ele>345</ele>
        <time>2021-05-07T14:49:26Z</time>
      </trkpt>
      <trkpt lat="45.44141" lon="4.72757">
        <ele>345</ele>
        <time>2021-05-07T14:49:28Z</time>
      </trkpt>
      <trkpt lat="45.44146" lon="4.7276">
        <ele>345</ele>
        <time>2021-05-07T14:49:30Z</time>
      </trkpt>
      <trkpt lat="45.44152" lon="4.72762">
        <ele>345</ele>
        <time>2021-05-07T14:49:32Z</time>
      </trkpt>
      <trkpt lat="45.44157" lon="4.72765">
        <ele>345</ele>
        <time>2021-05-07T14:49:34Z</time>
      </trkpt>
      <trkpt lat="45.44162" lon="4.72768">
        <ele>345</ele>
        <time>2021-05-07T14:49:36Z</time>
      </trkpt>
      <trkpt lat="45.44167" lon="4.72771">
        <ele>345</ele>
        <time>2021-05-07T14:49:38Z</time>
      </trkpt>
      <trkpt lat="45.44172" lon="4.72774">
        <ele>345</ele>
        <time>2021-05-07T14:49:40Z</time>
      </trkpt>
      <trkpt lat="45.44177" lon="4.72777">
        <ele>345</ele>
        <time>2021-05-07T14:49:42Z</time>
      </trkpt>
      <trkpt lat="45.44183" lon="4.72781">
        <ele>345</ele>
        <time>2021-05-07T14:49:44Z</time>
      </trkpt>
      <trkpt lat="45.44188" lon="4.72784">
        <ele>346</ele>
        <time>2021-05-07T14:49:46Z</time>
      </trkpt>
      <trkpt lat="45.44192" lon="4.72788">
        <ele>346</ele>
        <time>2021-05-07T14:49:48Z</time>
      </trkpt>
      <trkpt lat="45.44197" lon="4.72791">
        <ele>346</ele>
        <time>2021-05-07T14:49:50Z</time>
      </trkpt>
      <trkpt lat="45.44203" lon="4.72795">
        <ele>346</ele>
        <time>2021-05-07T14:49:52Z</time>
      </trkpt>
      <trkpt lat="45.44208" lon="4.72799">
        <ele>346</ele>
        <time>2021-05-07T14:49:54Z</time>
      </trkpt>
      <trkpt lat="45.44214" lon="4.72802">
        <ele>346</ele>
        <time>2021-05-07T14:49:56Z</time>
      </trkpt>
      <trkpt lat="45.44219" lon="4.72805">
        <ele>347</ele>
        <time>2021-05-07T14:49:58Z</time>
      </trkpt>
      <trkpt lat="45.44224" lon="4.72809">
        <ele>347</ele>
        <time>2021-05-07T14:50:00Z</time>
      </trkpt>
      <trkpt lat="45.44229" lon="4.72813">
        <ele>347</ele>
        <time>2021-05-07T14:50:02Z</time>
      </trkpt>
      <trkpt lat="45.44234" lon="4.72816">
        <ele>347</ele>
        <time>2021-05-07T14:50:04Z</time>
      </trkpt>
      <trkpt lat="45.4424" lon="4.72819">
        <ele>348</ele>
        <time>2021-05-07T14:50:06Z</time>
      </trkpt>
      <trkpt lat="45.44244" lon="4.72824">
        <ele>348</ele>
        <time>2021-05-07T14:50:08Z</time>
      </trkpt>
      <trkpt lat="45.4425" lon="4.72827">
        <ele>348</ele>
        <time>2021-05-07T14:50:10Z</time>
      </trkpt>
      <trkpt lat="45.44254" lon="4.72831">
        <ele>348</ele>
        <time>2021-05-07T14:50:12Z</time>
      </trkpt>
      <trkpt lat="45.44258" lon="4.72834">
        <ele>349</ele>
        <time>2021-05-07T14:50:14Z</time>
      </trkpt>
      <trkpt lat="45.44262" lon="4.72836">
        <ele>349</ele>
        <time>2021-05-07T14:50:17Z</time>
      </trkpt>
      <trkpt lat="45.44266" lon="4.7284">
        <ele>349</ele>
        <time>2021-05-07T14:50:20Z</time>
      </trkpt>
      <trkpt lat="45.4427" lon="4.72843">
        <ele>350</ele>
        <time>2021-05-07T14:50:23Z</time>
      </trkpt>
      <trkpt lat="45.44274" lon="4.72845">
        <ele>349</ele>
        <time>2021-05-07T14:50:25Z</time>
      </trkpt>
      <trkpt lat="45.44278" lon="4.72847">
        <ele>349</ele>
        <time>2021-05-07T14:50:28Z</time>
      </trkpt>
      <trkpt lat="45.44282" lon="4.7285">
        <ele>349</ele>
        <time>2021-05-07T14:50:31Z</time>
      </trkpt>
      <trkpt lat="45.44286" lon="4.72852">
        <ele>350</ele>
        <time>2021-05-07T14:50:34Z</time>
      </trkpt>
      <trkpt lat="45.4429" lon="4.72855">
        <ele>350</ele>
        <time>2021-05-07T14:50:37Z</time>
      </trkpt>
      <trkpt lat="45.44294" lon="4.72856">
        <ele>350</ele>
        <time>2021-05-07T14:50:39Z</time>
      </trkpt>
      <trkpt lat="45.44299" lon="4.72859">
        <ele>350</ele>
        <time>2021-05-07T14:50:41Z</time>
      </trkpt>
      <trkpt lat="45.44304" lon="4.72861">
        <ele>350</ele>
        <time>2021-05-07T14:50:43Z</time>
      </trkpt>
      <trkpt lat="45.4431" lon="4.72864">
        <ele>350</ele>
        <time>2021-05-07T14:50:45Z</time>
      </trkpt>
      <trkpt lat="45.44315" lon="4.72867">
        <ele>350</ele>
        <time>2021-05-07T14:50:47Z</time>
      </trkpt>
      <trkpt lat="45.4432" lon="4.7287">
        <ele>350</ele>
        <time>2021-05-07T14:50:49Z</time>
      </trkpt>
      <trkpt lat="45.44326" lon="4.72872">
        <ele>350</ele>
        <time>2021-05-07T14:50:51Z</time>
      </trkpt>
      <trkpt lat="45.44331" lon="4.72875">
        <ele>351</ele>
        <time>2021-05-07T14:50:53Z</time>
      </trkpt>
      <trkpt lat="45.44336" lon="4.72877">
        <ele>351</ele>
        <time>2021-05-07T14:50:55Z</time>
      </trkpt>
      <trkpt lat="45.44341" lon="4.7288">
        <ele>351</ele>
        <time>2021-05-07T14:50:57Z</time>
      </trkpt>
      <trkpt lat="45.44346" lon="4.72881">
        <ele>351</ele>
        <time>2021-05-07T14:50:59Z</time>
      </trkpt>
      <trkpt lat="45.44352" lon="4.72884">
        <ele>351</ele>
        <time>2021-05-07T14:51:01Z</time>
      </trkpt>
      <trkpt lat="45.44358" lon="4.72887">
        <ele>352</ele>
        <time>2021-05-07T14:51:03Z</time>
      </trkpt>
      <trkpt lat="45.44363" lon="4.72889">
        <ele>351</ele>
        <time>2021-05-07T14:51:05Z</time>
      </trkpt>
      <trkpt lat="45.44369" lon="4.72892">
        <ele>351</ele>
        <time>2021-05-07T14:51:07Z</time>
      </trkpt>
      <trkpt lat="45.44374" lon="4.72894">
        <ele>352</ele>
        <time>2021-05-07T14:51:09Z</time>
      </trkpt>
      <trkpt lat="45.44379" lon="4.72897">
        <ele>352</ele>
        <time>2021-05-07T14:51:11Z</time>
      </trkpt>
      <trkpt lat="45.44385" lon="4.72899">
        <ele>353</ele>
        <time>2021-05-07T14:51:13Z</time>
      </trkpt>
      <trkpt lat="45.44391" lon="4.72901">
        <ele>353</ele>
        <time>2021-05-07T14:51:15Z</time>
      </trkpt>
      <trkpt lat="45.44397" lon="4.72903">
        <ele>353</ele>
        <time>2021-05-07T14:51:17Z</time>
      </trkpt>
      <trkpt lat="45.44402" lon="4.72906">
        <ele>352</ele>
        <time>2021-05-07T14:51:19Z</time>
      </trkpt>
      <trkpt lat="45.44408" lon="4.72908">
        <ele>353</ele>
        <time>2021-05-07T14:51:21Z</time>
      </trkpt>
      <trkpt lat="45.44413" lon="4.72911">
        <ele>353</ele>
        <time>2021-05-07T14:51:23Z</time>
      </trkpt>
      <trkpt lat="45.44418" lon="4.72913">
        <ele>353</ele>
        <time>2021-05-07T14:51:25Z</time>
      </trkpt>
      <trkpt lat="45.44424" lon="4.72914">
        <ele>353</ele>
        <time>2021-05-07T14:51:27Z</time>
      </trkpt>
      <trkpt lat="45.44429" lon="4.72914">
        <ele>353</ele>
        <time>2021-05-07T14:51:29Z</time>
      </trkpt>
      <trkpt lat="45.44435" lon="4.72913">
        <ele>353</ele>
        <time>2021-05-07T14:51:31Z</time>
      </trkpt>
      <trkpt lat="45.4444" lon="4.72911">
        <ele>354</ele>
        <time>2021-05-07T14:51:33Z</time>
      </trkpt>
      <trkpt lat="45.44445" lon="4.72907">
        <ele>354</ele>
        <time>2021-05-07T14:51:35Z</time>
      </trkpt>
      <trkpt lat="45.44448" lon="4.72902">
        <ele>354</ele>
        <time>2021-05-07T14:51:37Z</time>
      </trkpt>
      <trkpt lat="45.4445" lon="4.72896">
        <ele>354</ele>
        <time>2021-05-07T14:51:40Z</time>
      </trkpt>
      <trkpt lat="45.44453" lon="4.72889">
        <ele>354</ele>
        <time>2021-05-07T14:51:41Z</time>
      </trkpt>
      <trkpt lat="45.44453" lon="4.72881">
        <ele>354</ele>
        <time>2021-05-07T14:51:43Z</time>
      </trkpt>
      <trkpt lat="45.44454" lon="4.72872">
        <ele>354</ele>
        <time>2021-05-07T14:51:45Z</time>
      </trkpt>
      <trkpt lat="45.44456" lon="4.72864">
        <ele>354</ele>
        <time>2021-05-07T14:51:47Z</time>
      </trkpt>
      <trkpt lat="45.44458" lon="4.72857">
        <ele>355</ele>
        <time>2021-05-07T14:51:49Z</time>
      </trkpt>
      <trkpt lat="45.4446" lon="4.7285">
        <ele>355</ele>
        <time>2021-05-07T14:51:51Z</time>
      </trkpt>
      <trkpt lat="45.44461" lon="4.72844">
        <ele>356</ele>
        <time>2021-05-07T14:51:53Z</time>
      </trkpt>
      <trkpt lat="45.44464" lon="4.72836">
        <ele>356</ele>
        <time>2021-05-07T14:51:55Z</time>
      </trkpt>
      <trkpt lat="45.44465" lon="4.72829">
        <ele>356</ele>
        <time>2021-05-07T14:51:57Z</time>
      </trkpt>
      <trkpt lat="45.44467" lon="4.72821">
        <ele>357</ele>
        <time>2021-05-07T14:51:59Z</time>
      </trkpt>
      <trkpt lat="45.44468" lon="4.72814">
        <ele>357</ele>
        <time>2021-05-07T14:52:01Z</time>
      </trkpt>
      <trkpt lat="45.44468" lon="4.72807">
        <ele>357</ele>
        <time>2021-05-07T14:52:03Z</time>
      </trkpt>
      <trkpt lat="45.44468" lon="4.72799">
        <ele>356</ele>
        <time>2021-05-07T14:52:05Z</time>
      </trkpt>
      <trkpt lat="45.44466" lon="4.72791">
        <ele>357</ele>
        <time>2021-05-07T14:52:07Z</time>
      </trkpt>
      <trkpt lat="45.44465" lon="4.72783">
        <ele>357</ele>
        <time>2021-05-07T14:52:09Z</time>
      </trkpt>
      <trkpt lat="45.44463" lon="4.72775">
        <ele>357</ele>
        <time>2021-05-07T14:52:11Z</time>
      </trkpt>
      <trkpt lat="45.44462" lon="4.72768">
        <ele>357</ele>
        <time>2021-05-07T14:52:13Z</time>
      </trkpt>
      <trkpt lat="45.44461" lon="4.72761">
        <ele>357</ele>
        <time>2021-05-07T14:52:15Z</time>
      </trkpt>
      <trkpt lat="45.4446" lon="4.72753">
        <ele>357</ele>
        <time>2021-05-07T14:52:17Z</time>
      </trkpt>
      <trkpt lat="45.44459" lon="4.72745">
        <ele>357</ele>
        <time>2021-05-07T14:52:19Z</time>
      </trkpt>
      <trkpt lat="45.44458" lon="4.72739">
        <ele>358</ele>
        <time>2021-05-07T14:52:21Z</time>
      </trkpt>
      <trkpt lat="45.44456" lon="4.72732">
        <ele>358</ele>
        <time>2021-05-07T14:52:25Z</time>
      </trkpt>
      <trkpt lat="45.44455" lon="4.72726">
        <ele>358</ele>
        <time>2021-05-07T14:52:28Z</time>
      </trkpt>
      <trkpt lat="45.44454" lon="4.7272">
        <ele>358</ele>
        <time>2021-05-07T14:52:31Z</time>
      </trkpt>
      <trkpt lat="45.44453" lon="4.72714">
        <ele>359</ele>
        <time>2021-05-07T14:52:33Z</time>
      </trkpt>
      <trkpt lat="45.44453" lon="4.72707">
        <ele>359</ele>
        <time>2021-05-07T14:52:36Z</time>
      </trkpt>
      <trkpt lat="45.44452" lon="4.72701">
        <ele>360</ele>
        <time>2021-05-07T14:52:39Z</time>
      </trkpt>
      <trkpt lat="45.44453" lon="4.72694">
        <ele>360</ele>
        <time>2021-05-07T14:52:42Z</time>
      </trkpt>
      <trkpt lat="45.44452" lon="4.72689">
        <ele>360</ele>
        <time>2021-05-07T14:52:44Z</time>
      </trkpt>
      <trkpt lat="45.4445" lon="4.72683">
        <ele>360</ele>
        <time>2021-05-07T14:52:46Z</time>
      </trkpt>
      <trkpt lat="45.44449" lon="4.72676">
        <ele>360</ele>
        <time>2021-05-07T14:52:48Z</time>
      </trkpt>
      <trkpt lat="45.44447" lon="4.7267">
        <ele>361</ele>
        <time>2021-05-07T14:52:50Z</time>
      </trkpt>
      <trkpt lat="45.44446" lon="4.72664">
        <ele>361</ele>
        <time>2021-05-07T14:52:52Z</time>
      </trkpt>
      <trkpt lat="45.44445" lon="4.72657">
        <ele>361</ele>
        <time>2021-05-07T14:52:54Z</time>
      </trkpt>
      <trkpt lat="45.44445" lon="4.7265">
        <ele>362</ele>
        <time>2021-05-07T14:52:56Z</time>
      </trkpt>
      <trkpt lat="45.44443" lon="4.72642">
        <ele>362</ele>
        <time>2021-05-07T14:52:58Z</time>
      </trkpt>
      <trkpt lat="45.44443" lon="4.72635">
        <ele>362</ele>
        <time>2021-05-07T14:53:00Z</time>
      </trkpt>
      <trkpt lat="45.44442" lon="4.72628">
        <ele>362</ele>
        <time>2021-05-07T14:53:02Z</time>
      </trkpt>
      <trkpt lat="45.44442" lon="4.72621">
        <ele>362</ele>
        <time>2021-05-07T14:53:04Z</time>
      </trkpt>
      <trkpt lat="45.4444" lon="4.72613">
        <ele>362</ele>
        <time>2021-05-07T14:53:06Z</time>
      </trkpt>
      <trkpt lat="45.4444" lon="4.72607">
        <ele>362</ele>
        <time>2021-05-07T14:53:08Z</time>
      </trkpt>
      <trkpt lat="45.44439" lon="4.726">
        <ele>362</ele>
        <time>2021-05-07T14:53:10Z</time>
      </trkpt>
      <trkpt lat="45.44438" lon="4.72592">
        <ele>363</ele>
        <time>2021-05-07T14:53:12Z</time>
      </trkpt>
      <trkpt lat="45.44438" lon="4.72585">
        <ele>363</ele>
        <time>2021-05-07T14:53:14Z</time>
      </trkpt>
      <trkpt lat="45.44437" lon="4.72577">
        <ele>363</ele>
        <time>2021-05-07T14:53:16Z</time>
      </trkpt>
      <trkpt lat="45.44437" lon="4.72569">
        <ele>364</ele>
        <time>2021-05-07T14:53:18Z</time>
      </trkpt>
      <trkpt lat="45.44437" lon="4.72562">
        <ele>364</ele>
        <time>2021-05-07T14:53:20Z</time>
      </trkpt>
      <trkpt lat="45.44437" lon="4.72554">
        <ele>364</ele>
        <time>2021-05-07T14:53:22Z</time>
      </trkpt>
      <trkpt lat="45.44436" lon="4.72546">
        <ele>365</ele>
        <time>2021-05-07T14:53:24Z</time>
      </trkpt>
      <trkpt lat="45.44436" lon="4.72538">
        <ele>365</ele>
        <time>2021-05-07T14:53:26Z</time>
      </trkpt>
      <trkpt lat="45.44436" lon="4.7253">
        <ele>365</ele>
        <time>2021-05-07T14:53:28Z</time>
      </trkpt>
      <trkpt lat="45.44436" lon="4.72524">
        <ele>366</ele>
        <time>2021-05-07T14:53:31Z</time>
      </trkpt>
      <trkpt lat="45.44436" lon="4.72518">
        <ele>367</ele>
        <time>2021-05-07T14:53:34Z</time>
      </trkpt>
      <trkpt lat="45.44436" lon="4.72513">
        <ele>367</ele>
        <time>2021-05-07T14:53:37Z</time>
      </trkpt>
      <trkpt lat="45.44436" lon="4.72506">
        <ele>367</ele>
        <time>2021-05-07T14:53:40Z</time>
      </trkpt>
      <trkpt lat="45.44435" lon="4.72501">
        <ele>367</ele>
        <time>2021-05-07T14:53:43Z</time>
      </trkpt>
      <trkpt lat="45.44436" lon="4.72495">
        <ele>368</ele>
        <time>2021-05-07T14:53:46Z</time>
      </trkpt>
      <trkpt lat="45.44436" lon="4.72488">
        <ele>368</ele>
        <time>2021-05-07T14:53:49Z</time>
      </trkpt>
      <trkpt lat="45.44436" lon="4.72481">
        <ele>368</ele>
        <time>2021-05-07T14:53:52Z</time>
      </trkpt>
      <trkpt lat="45.44435" lon="4.72476">
        <ele>368</ele>
        <time>2021-05-07T14:53:54Z</time>
      </trkpt>
      <trkpt lat="45.44435" lon="4.7247">
        <ele>368</ele>
        <time>2021-05-07T14:53:57Z</time>
      </trkpt>
      <trkpt lat="45.44434" lon="4.72464">
        <ele>368</ele>
        <time>2021-05-07T14:54:00Z</time>
      </trkpt>
      <trkpt lat="45.44433" lon="4.72457">
        <ele>368</ele>
        <time>2021-05-07T14:54:03Z</time>
      </trkpt>
      <trkpt lat="45.44431" lon="4.72451">
        <ele>369</ele>
        <time>2021-05-07T14:54:06Z</time>
      </trkpt>
      <trkpt lat="45.44431" lon="4.72445">
        <ele>369</ele>
        <time>2021-05-07T14:54:09Z</time>
      </trkpt>
      <trkpt lat="45.4443" lon="4.72437">
        <ele>369</ele>
        <time>2021-05-07T14:54:12Z</time>
      </trkpt>
      <trkpt lat="45.44429" lon="4.72432">
        <ele>370</ele>
        <time>2021-05-07T14:54:18Z</time>
      </trkpt>
      <trkpt lat="45.44429" lon="4.72426">
        <ele>371</ele>
        <time>2021-05-07T14:54:20Z</time>
      </trkpt>
      <trkpt lat="45.44428" lon="4.7242">
        <ele>371</ele>
        <time>2021-05-07T14:54:22Z</time>
      </trkpt>
      <trkpt lat="45.44427" lon="4.72413">
        <ele>371</ele>
        <time>2021-05-07T14:54:24Z</time>
      </trkpt>
      <trkpt lat="45.44426" lon="4.72405">
        <ele>371</ele>
        <time>2021-05-07T14:54:26Z</time>
      </trkpt>
      <trkpt lat="45.44424" lon="4.72397">
        <ele>371</ele>
        <time>2021-05-07T14:54:28Z</time>
      </trkpt>
      <trkpt lat="45.44422" lon="4.72388">
        <ele>371</ele>
        <time>2021-05-07T14:54:30Z</time>
      </trkpt>
      <trkpt lat="45.44421" lon="4.72379">
        <ele>372</ele>
        <time>2021-05-07T14:54:32Z</time>
      </trkpt>
      <trkpt lat="45.44419" lon="4.72371">
        <ele>372</ele>
        <time>2021-05-07T14:54:34Z</time>
      </trkpt>
      <trkpt lat="45.44416" lon="4.72363">
        <ele>373</ele>
        <time>2021-05-07T14:54:36Z</time>
      </trkpt>
      <trkpt lat="45.44411" lon="4.72356">
        <ele>373</ele>
        <time>2021-05-07T14:54:38Z</time>
      </trkpt>
      <trkpt lat="45.44406" lon="4.7235">
        <ele>373</ele>
        <time>2021-05-07T14:54:40Z</time>
      </trkpt>
      <trkpt lat="45.44402" lon="4.72344">
        <ele>373</ele>
        <time>2021-05-07T14:54:42Z</time>
      </trkpt>
      <trkpt lat="45.44398" lon="4.72339">
        <ele>373</ele>
        <time>2021-05-07T14:54:44Z</time>
      </trkpt>
      <trkpt lat="45.44394" lon="4.72336">
        <ele>374</ele>
        <time>2021-05-07T14:54:46Z</time>
      </trkpt>
      <trkpt lat="45.44389" lon="4.72332">
        <ele>374</ele>
        <time>2021-05-07T14:54:48Z</time>
      </trkpt>
      <trkpt lat="45.44383" lon="4.72328">
        <ele>374</ele>
        <time>2021-05-07T14:54:50Z</time>
      </trkpt>
      <trkpt lat="45.44379" lon="4.72324">
        <ele>373</ele>
        <time>2021-05-07T14:54:52Z</time>
      </trkpt>
      <trkpt lat="45.44373" lon="4.72321">
        <ele>373</ele>
        <time>2021-05-07T14:54:54Z</time>
      </trkpt>
      <trkpt lat="45.44368" lon="4.72319">
        <ele>373</ele>
        <time>2021-05-07T14:54:56Z</time>
      </trkpt>
      <trkpt lat="45.44363" lon="4.72315">
        <ele>374</ele>
        <time>2021-05-07T14:54:58Z</time>
      </trkpt>
      <trkpt lat="45.44357" lon="4.72312">
        <ele>374</ele>
        <time>2021-05-07T14:55:00Z</time>
      </trkpt>
      <trkpt lat="45.44352" lon="4.72309">
        <ele>373</ele>
        <time>2021-05-07T14:55:02Z</time>
      </trkpt>
      <trkpt lat="45.44347" lon="4.72305">
        <ele>373</ele>
        <time>2021-05-07T14:55:04Z</time>
      </trkpt>
      <trkpt lat="45.44342" lon="4.72301">
        <ele>374</ele>
        <time>2021-05-07T14:55:06Z</time>
      </trkpt>
      <trkpt lat="45.44336" lon="4.72299">
        <ele>374</ele>
        <time>2021-05-07T14:55:09Z</time>
      </trkpt>
      <trkpt lat="45.44331" lon="4.72295">
        <ele>374</ele>
        <time>2021-05-07T14:55:10Z</time>
      </trkpt>
      <trkpt lat="45.44326" lon="4.72292">
        <ele>374</ele>
        <time>2021-05-07T14:55:12Z</time>
      </trkpt>
      <trkpt lat="45.4432" lon="4.72288">
        <ele>374</ele>
        <time>2021-05-07T14:55:14Z</time>
      </trkpt>
      <trkpt lat="45.44315" lon="4.72284">
        <ele>374</ele>
        <time>2021-05-07T14:55:16Z</time>
      </trkpt>
      <trkpt lat="45.4431" lon="4.7228">
        <ele>374</ele>
        <time>2021-05-07T14:55:18Z</time>
      </trkpt>
      <trkpt lat="45.44306" lon="4.72275">
        <ele>374</ele>
        <time>2021-05-07T14:55:20Z</time>
      </trkpt>
      <trkpt lat="45.44302" lon="4.7227">
        <ele>374</ele>
        <time>2021-05-07T14:55:22Z</time>
      </trkpt>
      <trkpt lat="45.44297" lon="4.72265">
        <ele>373</ele>
        <time>2021-05-07T14:55:24Z</time>
      </trkpt>
      <trkpt lat="45.44293" lon="4.7226">
        <ele>374</ele>
        <time>2021-05-07T14:55:26Z</time>
      </trkpt>
      <trkpt lat="45.44289" lon="4.72255">
        <ele>374</ele>
        <time>2021-05-07T14:55:28Z</time>
      </trkpt>
      <trkpt lat="45.44285" lon="4.72249">
        <ele>374</ele>
        <time>2021-05-07T14:55:30Z</time>
      </trkpt>
      <trkpt lat="45.44281" lon="4.72242">
        <ele>374</ele>
        <time>2021-05-07T14:55:32Z</time>
      </trkpt>
      <trkpt lat="45.44277" lon="4.72236">
        <ele>374</ele>
        <time>2021-05-07T14:55:34Z</time>
      </trkpt>
      <trkpt lat="45.44273" lon="4.7223">
        <ele>374</ele>
        <time>2021-05-07T14:55:36Z</time>
      </trkpt>
      <trkpt lat="45.44268" lon="4.72225">
        <ele>374</ele>
        <time>2021-05-07T14:55:38Z</time>
      </trkpt>
      <trkpt lat="45.44263" lon="4.72221">
        <ele>374</ele>
        <time>2021-05-07T14:55:40Z</time>
      </trkpt>
      <trkpt lat="45.44259" lon="4.72216">
        <ele>374</ele>
        <time>2021-05-07T14:55:42Z</time>
      </trkpt>
      <trkpt lat="45.44255" lon="4.7221">
        <ele>374</ele>
        <time>2021-05-07T14:55:44Z</time>
      </trkpt>
      <trkpt lat="45.44252" lon="4.72205">
        <ele>374</ele>
        <time>2021-05-07T14:55:46Z</time>
      </trkpt>
      <trkpt lat="45.44248" lon="4.722">
        <ele>375</ele>
        <time>2021-05-07T14:55:48Z</time>
      </trkpt>
      <trkpt lat="45.44244" lon="4.72196">
        <ele>375</ele>
        <time>2021-05-07T14:55:50Z</time>
      </trkpt>
      <trkpt lat="45.44239" lon="4.72193">
        <ele>375</ele>
        <time>2021-05-07T14:55:52Z</time>
      </trkpt>
      <trkpt lat="45.44235" lon="4.72188">
        <ele>375</ele>
        <time>2021-05-07T14:55:54Z</time>
      </trkpt>
      <trkpt lat="45.4423" lon="4.72185">
        <ele>375</ele>
        <time>2021-05-07T14:55:56Z</time>
      </trkpt>
      <trkpt lat="45.44226" lon="4.72181">
        <ele>376</ele>
        <time>2021-05-07T14:55:58Z</time>
      </trkpt>
      <trkpt lat="45.44221" lon="4.72177">
        <ele>376</ele>
        <time>2021-05-07T14:56:00Z</time>
      </trkpt>
      <trkpt lat="45.44215" lon="4.72173">
        <ele>376</ele>
        <time>2021-05-07T14:56:02Z</time>
      </trkpt>
      <trkpt lat="45.44212" lon="4.72168">
        <ele>376</ele>
        <time>2021-05-07T14:56:04Z</time>
      </trkpt>
      <trkpt lat="45.44206" lon="4.72159">
        <ele>377</ele>
        <time>2021-05-07T14:56:07Z</time>
      </trkpt>
      <trkpt lat="45.44203" lon="4.72153">
        <ele>377</ele>
        <time>2021-05-07T14:56:09Z</time>
      </trkpt>
      <trkpt lat="45.44198" lon="4.72148">
        <ele>378</ele>
        <time>2021-05-07T14:56:11Z</time>
      </trkpt>
      <trkpt lat="45.44194" lon="4.72143">
        <ele>378</ele>
        <time>2021-05-07T14:56:13Z</time>
      </trkpt>
      <trkpt lat="45.44189" lon="4.72138">
        <ele>378</ele>
        <time>2021-05-07T14:56:15Z</time>
      </trkpt>
      <trkpt lat="45.44185" lon="4.72133">
        <ele>378</ele>
        <time>2021-05-07T14:56:17Z</time>
      </trkpt>
      <trkpt lat="45.44181" lon="4.72129">
        <ele>379</ele>
        <time>2021-05-07T14:56:19Z</time>
      </trkpt>
      <trkpt lat="45.44177" lon="4.72125">
        <ele>379</ele>
        <time>2021-05-07T14:56:21Z</time>
      </trkpt>
      <trkpt lat="45.44173" lon="4.72122">
        <ele>379</ele>
        <time>2021-05-07T14:56:23Z</time>
      </trkpt>
      <trkpt lat="45.4417" lon="4.7212">
        <ele>380</ele>
        <time>2021-05-07T14:56:26Z</time>
      </trkpt>
      <trkpt lat="45.44165" lon="4.72119">
        <ele>380</ele>
        <time>2021-05-07T14:56:29Z</time>
      </trkpt>
      <trkpt lat="45.44161" lon="4.72117">
        <ele>380</ele>
        <time>2021-05-07T14:56:32Z</time>
      </trkpt>
      <trkpt lat="45.44156" lon="4.72115">
        <ele>380</ele>
        <time>2021-05-07T14:56:35Z</time>
      </trkpt>
      <trkpt lat="45.44152" lon="4.72111">
        <ele>380</ele>
        <time>2021-05-07T14:56:38Z</time>
      </trkpt>
      <trkpt lat="45.44148" lon="4.72108">
        <ele>380</ele>
        <time>2021-05-07T14:56:41Z</time>
      </trkpt>
      <trkpt lat="45.44143" lon="4.72106">
        <ele>381</ele>
        <time>2021-05-07T14:56:44Z</time>
      </trkpt>
      <trkpt lat="45.44139" lon="4.72103">
        <ele>381</ele>
        <time>2021-05-07T14:56:47Z</time>
      </trkpt>
      <trkpt lat="45.44135" lon="4.721">
        <ele>381</ele>
        <time>2021-05-07T14:56:50Z</time>
      </trkpt>
      <trkpt lat="45.44129" lon="4.72098">
        <ele>381</ele>
        <time>2021-05-07T14:56:53Z</time>
      </trkpt>
      <trkpt lat="45.44124" lon="4.72095">
        <ele>382</ele>
        <time>2021-05-07T14:56:55Z</time>
      </trkpt>
      <trkpt lat="45.44119" lon="4.72092">
        <ele>382</ele>
        <time>2021-05-07T14:56:57Z</time>
      </trkpt>
      <trkpt lat="45.44115" lon="4.7209">
        <ele>383</ele>
        <time>2021-05-07T14:56:59Z</time>
      </trkpt>
      <trkpt lat="45.44111" lon="4.72086">
        <ele>384</ele>
        <time>2021-05-07T14:57:01Z</time>
      </trkpt>
      <trkpt lat="45.44106" lon="4.72083">
        <ele>384</ele>
        <time>2021-05-07T14:57:03Z</time>
      </trkpt>
      <trkpt lat="45.44102" lon="4.72079">
        <ele>384</ele>
        <time>2021-05-07T14:57:05Z</time>
      </trkpt>
      <trkpt lat="45.44097" lon="4.72076">
        <ele>384</ele>
        <time>2021-05-07T14:57:07Z</time>
      </trkpt>
      <trkpt lat="45.44092" lon="4.72071">
        <ele>384</ele>
        <time>2021-05-07T14:57:09Z</time>
      </trkpt>
      <trkpt lat="45.44088" lon="4.72067">
        <ele>384</ele>
        <time>2021-05-07T14:57:11Z</time>
      </trkpt>
      <trkpt lat="45.44082" lon="4.72063">
        <ele>384</ele>
        <time>2021-05-07T14:57:13Z</time>
      </trkpt>
      <trkpt lat="45.44077" lon="4.72061">
        <ele>384</ele>
        <time>2021-05-07T14:57:15Z</time>
      </trkpt>
      <trkpt lat="45.44073" lon="4.72058">
        <ele>385</ele>
        <time>2021-05-07T14:57:17Z</time>
      </trkpt>
      <trkpt lat="45.44068" lon="4.72055">
        <ele>385</ele>
        <time>2021-05-07T14:57:19Z</time>
      </trkpt>
      <trkpt lat="45.44064" lon="4.72051">
        <ele>384</ele>
        <time>2021-05-07T14:57:21Z</time>
      </trkpt>
      <trkpt lat="45.4406" lon="4.72047">
        <ele>384</ele>
        <time>2021-05-07T14:57:23Z</time>
      </trkpt>
      <trkpt lat="45.44056" lon="4.72041">
        <ele>384</ele>
        <time>2021-05-07T14:57:25Z</time>
      </trkpt>
      <trkpt lat="45.44052" lon="4.72036">
        <ele>385</ele>
        <time>2021-05-07T14:57:27Z</time>
      </trkpt>
      <trkpt lat="45.44049" lon="4.72031">
        <ele>386</ele>
        <time>2021-05-07T14:57:29Z</time>
      </trkpt>
      <trkpt lat="45.44047" lon="4.72027">
        <ele>386</ele>
        <time>2021-05-07T14:57:31Z</time>
      </trkpt>
      <trkpt lat="45.44044" lon="4.72022">
        <ele>387</ele>
        <time>2021-05-07T14:57:34Z</time>
      </trkpt>
      <trkpt lat="45.44042" lon="4.72015">
        <ele>388</ele>
        <time>2021-05-07T14:57:37Z</time>
      </trkpt>
      <trkpt lat="45.44041" lon="4.7201">
        <ele>388</ele>
        <time>2021-05-07T14:57:40Z</time>
      </trkpt>
      <trkpt lat="45.44039" lon="4.72004">
        <ele>388</ele>
        <time>2021-05-07T14:57:43Z</time>
      </trkpt>
      <trkpt lat="45.44038" lon="4.71998">
        <ele>389</ele>
        <time>2021-05-07T14:57:46Z</time>
      </trkpt>
      <trkpt lat="45.44038" lon="4.71992">
        <ele>389</ele>
        <time>2021-05-07T14:57:49Z</time>
      </trkpt>
      <trkpt lat="45.44037" lon="4.71985">
        <ele>389</ele>
        <time>2021-05-07T14:57:52Z</time>
      </trkpt>
      <trkpt lat="45.44034" lon="4.71979">
        <ele>390</ele>
        <time>2021-05-07T14:57:55Z</time>
      </trkpt>
      <trkpt lat="45.44033" lon="4.71974">
        <ele>391</ele>
        <time>2021-05-07T14:57:57Z</time>
      </trkpt>
      <trkpt lat="45.44031" lon="4.71969">
        <ele>392</ele>
        <time>2021-05-07T14:57:59Z</time>
      </trkpt>
      <trkpt lat="45.44029" lon="4.71964">
        <ele>392</ele>
        <time>2021-05-07T14:58:01Z</time>
      </trkpt>
      <trkpt lat="45.44026" lon="4.71959">
        <ele>392</ele>
        <time>2021-05-07T14:58:03Z</time>
      </trkpt>
      <trkpt lat="45.44023" lon="4.71954">
        <ele>392</ele>
        <time>2021-05-07T14:58:05Z</time>
      </trkpt>
      <trkpt lat="45.44021" lon="4.71949">
        <ele>392</ele>
        <time>2021-05-07T14:58:07Z</time>
      </trkpt>
      <trkpt lat="45.44018" lon="4.71945">
        <ele>393</ele>
        <time>2021-05-07T14:58:09Z</time>
      </trkpt>
      <trkpt lat="45.44015" lon="4.7194">
        <ele>393</ele>
        <time>2021-05-07T14:58:11Z</time>
      </trkpt>
      <trkpt lat="45.44012" lon="4.71934">
        <ele>393</ele>
        <time>2021-05-07T14:58:13Z</time>
      </trkpt>
      <trkpt lat="45.44008" lon="4.71929">
        <ele>393</ele>
        <time>2021-05-07T14:58:15Z</time>
      </trkpt>
      <trkpt lat="45.44003" lon="4.71926">
        <ele>393</ele>
        <time>2021-05-07T14:58:17Z</time>
      </trkpt>
      <trkpt lat="45.43998" lon="4.71923">
        <ele>394</ele>
        <time>2021-05-07T14:58:19Z</time>
      </trkpt>
      <trkpt lat="45.43993" lon="4.71922">
        <ele>394</ele>
        <time>2021-05-07T14:58:21Z</time>
      </trkpt>
      <trkpt lat="45.43987" lon="4.71922">
        <ele>394</ele>
        <time>2021-05-07T14:58:23Z</time>
      </trkpt>
      <trkpt lat="45.43982" lon="4.71922">
        <ele>394</ele>
        <time>2021-05-07T14:58:25Z</time>
      </trkpt>
      <trkpt lat="45.43977" lon="4.71923">
        <ele>394</ele>
        <time>2021-05-07T14:58:27Z</time>
      </trkpt>
      <trkpt lat="45.43971" lon="4.71923">
        <ele>394</ele>
        <time>2021-05-07T14:58:29Z</time>
      </trkpt>
      <trkpt lat="45.43966" lon="4.71923">
        <ele>393</ele>
        <time>2021-05-07T14:58:31Z</time>
      </trkpt>
      <trkpt lat="45.4396" lon="4.71922">
        <ele>393</ele>
        <time>2021-05-07T14:58:33Z</time>
      </trkpt>
      <trkpt lat="45.43954" lon="4.71921">
        <ele>393</ele>
        <time>2021-05-07T14:58:35Z</time>
      </trkpt>
      <trkpt lat="45.43948" lon="4.71919">
        <ele>393</ele>
        <time>2021-05-07T14:58:37Z</time>
      </trkpt>
      <trkpt lat="45.43943" lon="4.71917">
        <ele>393</ele>
        <time>2021-05-07T14:58:39Z</time>
      </trkpt>
      <trkpt lat="45.43937" lon="4.71915">
        <ele>393</ele>
        <time>2021-05-07T14:58:41Z</time>
      </trkpt>
      <trkpt lat="45.43932" lon="4.71913">
        <ele>392</ele>
        <time>2021-05-07T14:58:43Z</time>
      </trkpt>
      <trkpt lat="45.43926" lon="4.71911">
        <ele>393</ele>
        <time>2021-05-07T14:58:45Z</time>
      </trkpt>
      <trkpt lat="45.43921" lon="4.7191">
        <ele>393</ele>
        <time>2021-05-07T14:58:47Z</time>
      </trkpt>
      <trkpt lat="45.43915" lon="4.71908">
        <ele>393</ele>
        <time>2021-05-07T14:58:49Z</time>
      </trkpt>
      <trkpt lat="45.4391" lon="4.71907">
        <ele>393</ele>
        <time>2021-05-07T14:58:51Z</time>
      </trkpt>
      <trkpt lat="45.43904" lon="4.71905">
        <ele>393</ele>
        <time>2021-05-07T14:58:53Z</time>
      </trkpt>
      <trkpt lat="45.43899" lon="4.71903">
        <ele>393</ele>
        <time>2021-05-07T14:58:55Z</time>
      </trkpt>
      <trkpt lat="45.43893" lon="4.71901">
        <ele>394</ele>
        <time>2021-05-07T14:58:57Z</time>
      </trkpt>
      <trkpt lat="45.43888" lon="4.71899">
        <ele>395</ele>
        <time>2021-05-07T14:58:59Z</time>
      </trkpt>
      <trkpt lat="45.43882" lon="4.71896">
        <ele>395</ele>
        <time>2021-05-07T14:59:01Z</time>
      </trkpt>
      <trkpt lat="45.43876" lon="4.71894">
        <ele>395</ele>
        <time>2021-05-07T14:59:03Z</time>
      </trkpt>
      <trkpt lat="45.43871" lon="4.71891">
        <ele>395</ele>
        <time>2021-05-07T14:59:05Z</time>
      </trkpt>
      <trkpt lat="45.43865" lon="4.71889">
        <ele>395</ele>
        <time>2021-05-07T14:59:07Z</time>
      </trkpt>
      <trkpt lat="45.43859" lon="4.71886">
        <ele>395</ele>
        <time>2021-05-07T14:59:09Z</time>
      </trkpt>
      <trkpt lat="45.43854" lon="4.71884">
        <ele>396</ele>
        <time>2021-05-07T14:59:11Z</time>
      </trkpt>
      <trkpt lat="45.43849" lon="4.71881">
        <ele>396</ele>
        <time>2021-05-07T14:59:13Z</time>
      </trkpt>
      <trkpt lat="45.43844" lon="4.7188">
        <ele>398</ele>
        <time>2021-05-07T14:59:15Z</time>
      </trkpt>
      <trkpt lat="45.4384" lon="4.71879">
        <ele>398</ele>
        <time>2021-05-07T14:59:17Z</time>
      </trkpt>
      <trkpt lat="45.43837" lon="4.71883">
        <ele>398</ele>
        <time>2021-05-07T14:59:19Z</time>
      </trkpt>
      <trkpt lat="45.43833" lon="4.71887">
        <ele>398</ele>
        <time>2021-05-07T14:59:21Z</time>
      </trkpt>
      <trkpt lat="45.43827" lon="4.71889">
        <ele>398</ele>
        <time>2021-05-07T14:59:23Z</time>
      </trkpt>
      <trkpt lat="45.43822" lon="4.71891">
        <ele>396</ele>
        <time>2021-05-07T14:59:25Z</time>
      </trkpt>
      <trkpt lat="45.43817" lon="4.71893">
        <ele>396</ele>
        <time>2021-05-07T14:59:27Z</time>
      </trkpt>
      <trkpt lat="45.43812" lon="4.71895">
        <ele>396</ele>
        <time>2021-05-07T14:59:29Z</time>
      </trkpt>
      <trkpt lat="45.43806" lon="4.71897">
        <ele>395</ele>
        <time>2021-05-07T14:59:31Z</time>
      </trkpt>
      <trkpt lat="45.438" lon="4.71898">
        <ele>394</ele>
        <time>2021-05-07T14:59:33Z</time>
      </trkpt>
      <trkpt lat="45.43793" lon="4.71896">
        <ele>394</ele>
        <time>2021-05-07T14:59:35Z</time>
      </trkpt>
      <trkpt lat="45.43789" lon="4.71895">
        <ele>393</ele>
        <time>2021-05-07T14:59:36Z</time>
      </trkpt>
      <trkpt lat="45.43783" lon="4.71893">
        <ele>393</ele>
        <time>2021-05-07T14:59:38Z</time>
      </trkpt>
      <trkpt lat="45.43777" lon="4.7189">
        <ele>392</ele>
        <time>2021-05-07T14:59:40Z</time>
      </trkpt>
      <trkpt lat="45.43772" lon="4.71886">
        <ele>392</ele>
        <time>2021-05-07T14:59:42Z</time>
      </trkpt>
      <trkpt lat="45.43765" lon="4.71882">
        <ele>391</ele>
        <time>2021-05-07T14:59:44Z</time>
      </trkpt>
      <trkpt lat="45.43759" lon="4.71879">
        <ele>391</ele>
        <time>2021-05-07T14:59:46Z</time>
      </trkpt>
      <trkpt lat="45.43753" lon="4.71876">
        <ele>391</ele>
        <time>2021-05-07T14:59:48Z</time>
      </trkpt>
      <trkpt lat="45.43748" lon="4.71873">
        <ele>391</ele>
        <time>2021-05-07T14:59:50Z</time>
      </trkpt>
      <trkpt lat="45.43743" lon="4.7187">
        <ele>392</ele>
        <time>2021-05-07T14:59:52Z</time>
      </trkpt>
      <trkpt lat="45.43738" lon="4.71867">
        <ele>392</ele>
        <time>2021-05-07T14:59:54Z</time>
      </trkpt>
      <trkpt lat="45.43733" lon="4.71864">
        <ele>392</ele>
        <time>2021-05-07T14:59:56Z</time>
      </trkpt>
      <trkpt lat="45.43728" lon="4.71861">
        <ele>393</ele>
        <time>2021-05-07T14:59:58Z</time>
      </trkpt>
      <trkpt lat="45.43723" lon="4.71858">
        <ele>394</ele>
        <time>2021-05-07T15:00:00Z</time>
      </trkpt>
      <trkpt lat="45.43718" lon="4.71855">
        <ele>394</ele>
        <time>2021-05-07T15:00:02Z</time>
      </trkpt>
      <trkpt lat="45.43712" lon="4.71853">
        <ele>395</ele>
        <time>2021-05-07T15:00:04Z</time>
      </trkpt>
      <trkpt lat="45.43706" lon="4.7185">
        <ele>394</ele>
        <time>2021-05-07T15:00:06Z</time>
      </trkpt>
      <trkpt lat="45.43701" lon="4.71847">
        <ele>394</ele>
        <time>2021-05-07T15:00:08Z</time>
      </trkpt>
      <trkpt lat="45.43696" lon="4.71844">
        <ele>394</ele>
        <time>2021-05-07T15:00:10Z</time>
      </trkpt>
      <trkpt lat="45.43691" lon="4.71842">
        <ele>394</ele>
        <time>2021-05-07T15:00:12Z</time>
      </trkpt>
      <trkpt lat="45.43686" lon="4.71838">
        <ele>394</ele>
        <time>2021-05-07T15:00:14Z</time>
      </trkpt>
      <trkpt lat="45.43681" lon="4.71836">
        <ele>394</ele>
        <time>2021-05-07T15:00:16Z</time>
      </trkpt>
      <trkpt lat="45.43675" lon="4.71833">
        <ele>394</ele>
        <time>2021-05-07T15:00:18Z</time>
      </trkpt>
      <trkpt lat="45.43669" lon="4.7183">
        <ele>394</ele>
        <time>2021-05-07T15:00:20Z</time>
      </trkpt>
      <trkpt lat="45.43663" lon="4.71827">
        <ele>394</ele>
        <time>2021-05-07T15:00:22Z</time>
      </trkpt>
      <trkpt lat="45.43658" lon="4.71822">
        <ele>394</ele>
        <time>2021-05-07T15:00:24Z</time>
      </trkpt>
      <trkpt lat="45.43652" lon="4.71817">
        <ele>395</ele>
        <time>2021-05-07T15:00:26Z</time>
      </trkpt>
      <trkpt lat="45.43647" lon="4.71813">
        <ele>395</ele>
        <time>2021-05-07T15:00:28Z</time>
      </trkpt>
      <trkpt lat="45.43642" lon="4.71809">
        <ele>395</ele>
        <time>2021-05-07T15:00:30Z</time>
      </trkpt>
      <trkpt lat="45.43637" lon="4.71805">
        <ele>396</ele>
        <time>2021-05-07T15:00:32Z</time>
      </trkpt>
      <trkpt lat="45.43632" lon="4.718">
        <ele>396</ele>
        <time>2021-05-07T15:00:34Z</time>
      </trkpt>
      <trkpt lat="45.43627" lon="4.71795">
        <ele>396</ele>
        <time>2021-05-07T15:00:36Z</time>
      </trkpt>
      <trkpt lat="45.43622" lon="4.71792">
        <ele>396</ele>
        <time>2021-05-07T15:00:38Z</time>
      </trkpt>
      <trkpt lat="45.43618" lon="4.71787">
        <ele>396</ele>
        <time>2021-05-07T15:00:40Z</time>
      </trkpt>
      <trkpt lat="45.43614" lon="4.71782">
        <ele>396</ele>
        <time>2021-05-07T15:00:42Z</time>
      </trkpt>
      <trkpt lat="45.43607" lon="4.71772">
        <ele>397</ele>
        <time>2021-05-07T15:00:46Z</time>
      </trkpt>
      <trkpt lat="45.43604" lon="4.71766">
        <ele>397</ele>
        <time>2021-05-07T15:00:48Z</time>
      </trkpt>
      <trkpt lat="45.436" lon="4.71761">
        <ele>397</ele>
        <time>2021-05-07T15:00:50Z</time>
      </trkpt>
      <trkpt lat="45.43597" lon="4.71756">
        <ele>397</ele>
        <time>2021-05-07T15:00:52Z</time>
      </trkpt>
      <trkpt lat="45.43593" lon="4.71751">
        <ele>397</ele>
        <time>2021-05-07T15:00:54Z</time>
      </trkpt>
      <trkpt lat="45.4359" lon="4.71747">
        <ele>397</ele>
        <time>2021-05-07T15:00:56Z</time>
      </trkpt>
      <trkpt lat="45.43586" lon="4.71743">
        <ele>397</ele>
        <time>2021-05-07T15:00:58Z</time>
      </trkpt>
      <trkpt lat="45.43583" lon="4.71739">
        <ele>397</ele>
        <time>2021-05-07T15:01:00Z</time>
      </trkpt>
      <trkpt lat="45.43579" lon="4.71734">
        <ele>397</ele>
        <time>2021-05-07T15:01:02Z</time>
      </trkpt>
      <trkpt lat="45.43576" lon="4.71728">
        <ele>397</ele>
        <time>2021-05-07T15:01:04Z</time>
      </trkpt>
      <trkpt lat="45.43572" lon="4.71722">
        <ele>397</ele>
        <time>2021-05-07T15:01:06Z</time>
      </trkpt>
      <trkpt lat="45.43568" lon="4.71715">
        <ele>397</ele>
        <time>2021-05-07T15:01:08Z</time>
      </trkpt>
      <trkpt lat="45.43565" lon="4.71708">
        <ele>397</ele>
        <time>2021-05-07T15:01:10Z</time>
      </trkpt>
      <trkpt lat="45.43561" lon="4.71701">
        <ele>397</ele>
        <time>2021-05-07T15:01:12Z</time>
      </trkpt>
      <trkpt lat="45.43558" lon="4.71693">
        <ele>397</ele>
        <time>2021-05-07T15:01:14Z</time>
      </trkpt>
      <trkpt lat="45.43555" lon="4.71685">
        <ele>397</ele>
        <time>2021-05-07T15:01:16Z</time>
      </trkpt>
      <trkpt lat="45.43553" lon="4.71678">
        <ele>397</ele>
        <time>2021-05-07T15:01:18Z</time>
      </trkpt>
      <trkpt lat="45.4355" lon="4.71672">
        <ele>397</ele>
        <time>2021-05-07T15:01:20Z</time>
      </trkpt>
      <trkpt lat="45.43548" lon="4.71666">
        <ele>397</ele>
        <time>2021-05-07T15:01:22Z</time>
      </trkpt>
      <trkpt lat="45.43547" lon="4.71661">
        <ele>397</ele>
        <time>2021-05-07T15:01:25Z</time>
      </trkpt>
      <trkpt lat="45.43546" lon="4.71656">
        <ele>397</ele>
        <time>2021-05-07T15:01:28Z</time>
      </trkpt>
      <trkpt lat="45.43545" lon="4.71649">
        <ele>397</ele>
        <time>2021-05-07T15:01:31Z</time>
      </trkpt>
      <trkpt lat="45.43545" lon="4.71642">
        <ele>398</ele>
        <time>2021-05-07T15:01:34Z</time>
      </trkpt>
      <trkpt lat="45.43544" lon="4.71634">
        <ele>397</ele>
        <time>2021-05-07T15:01:37Z</time>
      </trkpt>
      <trkpt lat="45.43543" lon="4.71626">
        <ele>397</ele>
        <time>2021-05-07T15:01:39Z</time>
      </trkpt>
      <trkpt lat="45.43541" lon="4.71619">
        <ele>397</ele>
        <time>2021-05-07T15:01:41Z</time>
      </trkpt>
      <trkpt lat="45.43538" lon="4.71612">
        <ele>397</ele>
        <time>2021-05-07T15:01:43Z</time>
      </trkpt>
      <trkpt lat="45.43535" lon="4.71604">
        <ele>397</ele>
        <time>2021-05-07T15:01:45Z</time>
      </trkpt>
      <trkpt lat="45.43532" lon="4.71595">
        <ele>397</ele>
        <time>2021-05-07T15:01:48Z</time>
      </trkpt>
      <trkpt lat="45.4353" lon="4.71587">
        <ele>397</ele>
        <time>2021-05-07T15:01:49Z</time>
      </trkpt>
      <trkpt lat="45.43528" lon="4.71578">
        <ele>397</ele>
        <time>2021-05-07T15:01:51Z</time>
      </trkpt>
      <trkpt lat="45.43526" lon="4.71569">
        <ele>397</ele>
        <time>2021-05-07T15:01:53Z</time>
      </trkpt>
      <trkpt lat="45.43525" lon="4.71561">
        <ele>396</ele>
        <time>2021-05-07T15:01:55Z</time>
      </trkpt>
      <trkpt lat="45.43525" lon="4.71552">
        <ele>396</ele>
        <time>2021-05-07T15:01:57Z</time>
      </trkpt>
      <trkpt lat="45.43526" lon="4.71542">
        <ele>396</ele>
        <time>2021-05-07T15:01:59Z</time>
      </trkpt>
      <trkpt lat="45.43527" lon="4.71535">
        <ele>396</ele>
        <time>2021-05-07T15:02:01Z</time>
      </trkpt>
      <trkpt lat="45.43527" lon="4.71527">
        <ele>397</ele>
        <time>2021-05-07T15:02:03Z</time>
      </trkpt>
      <trkpt lat="45.43528" lon="4.7152">
        <ele>397</ele>
        <time>2021-05-07T15:02:05Z</time>
      </trkpt>
      <trkpt lat="45.4353" lon="4.71511">
        <ele>397</ele>
        <time>2021-05-07T15:02:07Z</time>
      </trkpt>
      <trkpt lat="45.4353" lon="4.71504">
        <ele>397</ele>
        <time>2021-05-07T15:02:09Z</time>
      </trkpt>
      <trkpt lat="45.43531" lon="4.71496">
        <ele>397</ele>
        <time>2021-05-07T15:02:11Z</time>
      </trkpt>
      <trkpt lat="45.43531" lon="4.71488">
        <ele>397</ele>
        <time>2021-05-07T15:02:13Z</time>
      </trkpt>
      <trkpt lat="45.4353" lon="4.71479">
        <ele>397</ele>
        <time>2021-05-07T15:02:15Z</time>
      </trkpt>
      <trkpt lat="45.43531" lon="4.71471">
        <ele>397</ele>
        <time>2021-05-07T15:02:17Z</time>
      </trkpt>
      <trkpt lat="45.43532" lon="4.71463">
        <ele>397</ele>
        <time>2021-05-07T15:02:19Z</time>
      </trkpt>
      <trkpt lat="45.43532" lon="4.71456">
        <ele>397</ele>
        <time>2021-05-07T15:02:21Z</time>
      </trkpt>
      <trkpt lat="45.43532" lon="4.71448">
        <ele>397</ele>
        <time>2021-05-07T15:02:23Z</time>
      </trkpt>
      <trkpt lat="45.43532" lon="4.71439">
        <ele>397</ele>
        <time>2021-05-07T15:02:26Z</time>
      </trkpt>
      <trkpt lat="45.43532" lon="4.71431">
        <ele>397</ele>
        <time>2021-05-07T15:02:27Z</time>
      </trkpt>
      <trkpt lat="45.43533" lon="4.71423">
        <ele>397</ele>
        <time>2021-05-07T15:02:29Z</time>
      </trkpt>
      <trkpt lat="45.43533" lon="4.71415">
        <ele>397</ele>
        <time>2021-05-07T15:02:31Z</time>
      </trkpt>
      <trkpt lat="45.43533" lon="4.71408">
        <ele>397</ele>
        <time>2021-05-07T15:02:33Z</time>
      </trkpt>
      <trkpt lat="45.43534" lon="4.71401">
        <ele>397</ele>
        <time>2021-05-07T15:02:35Z</time>
      </trkpt>
      <trkpt lat="45.43534" lon="4.71394">
        <ele>398</ele>
        <time>2021-05-07T15:02:37Z</time>
      </trkpt>
      <trkpt lat="45.43534" lon="4.71386">
        <ele>398</ele>
        <time>2021-05-07T15:02:39Z</time>
      </trkpt>
      <trkpt lat="45.43534" lon="4.71378">
        <ele>398</ele>
        <time>2021-05-07T15:02:41Z</time>
      </trkpt>
      <trkpt lat="45.43534" lon="4.7137">
        <ele>399</ele>
        <time>2021-05-07T15:02:43Z</time>
      </trkpt>
      <trkpt lat="45.43534" lon="4.71364">
        <ele>399</ele>
        <time>2021-05-07T15:02:45Z</time>
      </trkpt>
      <trkpt lat="45.43535" lon="4.71358">
        <ele>400</ele>
        <time>2021-05-07T15:02:48Z</time>
      </trkpt>
      <trkpt lat="45.43535" lon="4.71352">
        <ele>400</ele>
        <time>2021-05-07T15:02:51Z</time>
      </trkpt>
      <trkpt lat="45.43536" lon="4.71345">
        <ele>400</ele>
        <time>2021-05-07T15:02:54Z</time>
      </trkpt>
      <trkpt lat="45.43537" lon="4.71339">
        <ele>400</ele>
        <time>2021-05-07T15:02:57Z</time>
      </trkpt>
      <trkpt lat="45.43538" lon="4.71332">
        <ele>400</ele>
        <time>2021-05-07T15:03:00Z</time>
      </trkpt>
      <trkpt lat="45.43538" lon="4.71325">
        <ele>401</ele>
        <time>2021-05-07T15:03:04Z</time>
      </trkpt>
      <trkpt lat="45.43538" lon="4.71317">
        <ele>401</ele>
        <time>2021-05-07T15:03:06Z</time>
      </trkpt>
      <trkpt lat="45.43538" lon="4.71311">
        <ele>401</ele>
        <time>2021-05-07T15:03:08Z</time>
      </trkpt>
      <trkpt lat="45.43538" lon="4.71304">
        <ele>401</ele>
        <time>2021-05-07T15:03:10Z</time>
      </trkpt>
      <trkpt lat="45.43539" lon="4.71297">
        <ele>400</ele>
        <time>2021-05-07T15:03:12Z</time>
      </trkpt>
      <trkpt lat="45.4354" lon="4.7129">
        <ele>401</ele>
        <time>2021-05-07T15:03:14Z</time>
      </trkpt>
      <trkpt lat="45.4354" lon="4.71281">
        <ele>401</ele>
        <time>2021-05-07T15:03:16Z</time>
      </trkpt>
      <trkpt lat="45.43541" lon="4.71274">
        <ele>401</ele>
        <time>2021-05-07T15:03:18Z</time>
      </trkpt>
      <trkpt lat="45.43541" lon="4.71267">
        <ele>401</ele>
        <time>2021-05-07T15:03:20Z</time>
      </trkpt>
      <trkpt lat="45.4354" lon="4.7126">
        <ele>402</ele>
        <time>2021-05-07T15:03:22Z</time>
      </trkpt>
      <trkpt lat="45.43536" lon="4.71255">
        <ele>402</ele>
        <time>2021-05-07T15:03:24Z</time>
      </trkpt>
      <trkpt lat="45.43531" lon="4.71255">
        <ele>402</ele>
        <time>2021-05-07T15:03:26Z</time>
      </trkpt>
      <trkpt lat="45.43526" lon="4.71256">
        <ele>401</ele>
        <time>2021-05-07T15:03:28Z</time>
      </trkpt>
      <trkpt lat="45.43521" lon="4.71257">
        <ele>401</ele>
        <time>2021-05-07T15:03:30Z</time>
      </trkpt>
      <trkpt lat="45.43515" lon="4.71258">
        <ele>400</ele>
        <time>2021-05-07T15:03:32Z</time>
      </trkpt>
      <trkpt lat="45.43509" lon="4.71258">
        <ele>399</ele>
        <time>2021-05-07T15:03:34Z</time>
      </trkpt>
      <trkpt lat="45.43503" lon="4.71259">
        <ele>399</ele>
        <time>2021-05-07T15:03:37Z</time>
      </trkpt>
      <trkpt lat="45.43498" lon="4.71259">
        <ele>399</ele>
        <time>2021-05-07T15:03:38Z</time>
      </trkpt>
      <trkpt lat="45.43493" lon="4.7126">
        <ele>399</ele>
        <time>2021-05-07T15:03:40Z</time>
      </trkpt>
      <trkpt lat="45.43488" lon="4.71262">
        <ele>399</ele>
        <time>2021-05-07T15:03:42Z</time>
      </trkpt>
      <trkpt lat="45.43484" lon="4.71261">
        <ele>398</ele>
        <time>2021-05-07T15:03:45Z</time>
      </trkpt>
      <trkpt lat="45.43479" lon="4.71259">
        <ele>397</ele>
        <time>2021-05-07T15:03:49Z</time>
      </trkpt>
      <trkpt lat="45.43476" lon="4.71258">
        <ele>397</ele>
        <time>2021-05-07T15:03:52Z</time>
      </trkpt>
      <trkpt lat="45.43472" lon="4.71256">
        <ele>397</ele>
        <time>2021-05-07T15:03:55Z</time>
      </trkpt>
      <trkpt lat="45.43468" lon="4.71253">
        <ele>397</ele>
        <time>2021-05-07T15:03:59Z</time>
      </trkpt>
      <trkpt lat="45.43465" lon="4.7125">
        <ele>396</ele>
        <time>2021-05-07T15:04:04Z</time>
      </trkpt>
      <trkpt lat="45.43462" lon="4.71246">
        <ele>396</ele>
        <time>2021-05-07T15:04:09Z</time>
      </trkpt>
      <trkpt lat="45.4346" lon="4.7124">
        <ele>396</ele>
        <time>2021-05-07T15:04:15Z</time>
      </trkpt>
      <trkpt lat="45.43459" lon="4.71233">
        <ele>396</ele>
        <time>2021-05-07T15:04:18Z</time>
      </trkpt>
      <trkpt lat="45.43458" lon="4.71228">
        <ele>395</ele>
        <time>2021-05-07T15:04:20Z</time>
      </trkpt>
      <trkpt lat="45.43456" lon="4.71221">
        <ele>395</ele>
        <time>2021-05-07T15:04:23Z</time>
      </trkpt>
      <trkpt lat="45.43456" lon="4.71214">
        <ele>395</ele>
        <time>2021-05-07T15:04:26Z</time>
      </trkpt>
      <trkpt lat="45.43455" lon="4.71207">
        <ele>395</ele>
        <time>2021-05-07T15:04:29Z</time>
      </trkpt>
      <trkpt lat="45.43455" lon="4.712">
        <ele>396</ele>
        <time>2021-05-07T15:04:32Z</time>
      </trkpt>
      <trkpt lat="45.43455" lon="4.71195">
        <ele>396</ele>
        <time>2021-05-07T15:04:35Z</time>
      </trkpt>
      <trkpt lat="45.43455" lon="4.71189">
        <ele>395</ele>
        <time>2021-05-07T15:04:38Z</time>
      </trkpt>
      <trkpt lat="45.43455" lon="4.71183">
        <ele>396</ele>
        <time>2021-05-07T15:04:42Z</time>
      </trkpt>
      <trkpt lat="45.43455" lon="4.71178">
        <ele>397</ele>
        <time>2021-05-07T15:05:00Z</time>
      </trkpt>
      <trkpt lat="45.43455" lon="4.71172">
        <ele>396</ele>
        <time>2021-05-07T15:05:04Z</time>
      </trkpt>
      <trkpt lat="45.43454" lon="4.71166">
        <ele>396</ele>
        <time>2021-05-07T15:05:08Z</time>
      </trkpt>
      <trkpt lat="45.43451" lon="4.71171">
        <ele>397</ele>
        <time>2021-05-07T15:05:14Z</time>
      </trkpt>
      <trkpt lat="45.43449" lon="4.71177">
        <ele>397</ele>
        <time>2021-05-07T15:05:16Z</time>
      </trkpt>
      <trkpt lat="45.43446" lon="4.71182">
        <ele>397</ele>
        <time>2021-05-07T15:05:18Z</time>
      </trkpt>
      <trkpt lat="45.43442" lon="4.71185">
        <ele>396</ele>
        <time>2021-05-07T15:05:20Z</time>
      </trkpt>
      <trkpt lat="45.43438" lon="4.71186">
        <ele>395</ele>
        <time>2021-05-07T15:05:22Z</time>
      </trkpt>
      <trkpt lat="45.43434" lon="4.71186">
        <ele>393</ele>
        <time>2021-05-07T15:05:24Z</time>
      </trkpt>
      <trkpt lat="45.4343" lon="4.71188">
        <ele>392</ele>
        <time>2021-05-07T15:05:27Z</time>
      </trkpt>
      <trkpt lat="45.43426" lon="4.71188">
        <ele>392</ele>
        <time>2021-05-07T15:05:31Z</time>
      </trkpt>
      <trkpt lat="45.43422" lon="4.7119">
        <ele>392</ele>
        <time>2021-05-07T15:05:43Z</time>
      </trkpt>
      <trkpt lat="45.43419" lon="4.71195">
        <ele>391</ele>
        <time>2021-05-07T15:05:50Z</time>
      </trkpt>
      <trkpt lat="45.43415" lon="4.71194">
        <ele>390</ele>
        <time>2021-05-07T15:05:54Z</time>
      </trkpt>
      <trkpt lat="45.4341" lon="4.71198">
        <ele>388</ele>
        <time>2021-05-07T15:05:59Z</time>
      </trkpt>
      <trkpt lat="45.43407" lon="4.71201">
        <ele>387</ele>
        <time>2021-05-07T15:06:02Z</time>
      </trkpt>
      <trkpt lat="45.43404" lon="4.71205">
        <ele>386</ele>
        <time>2021-05-07T15:06:05Z</time>
      </trkpt>
      <trkpt lat="45.43401" lon="4.71209">
        <ele>386</ele>
        <time>2021-05-07T15:06:08Z</time>
      </trkpt>
      <trkpt lat="45.43397" lon="4.7121">
        <ele>385</ele>
        <time>2021-05-07T15:06:14Z</time>
      </trkpt>
      <trkpt lat="45.43393" lon="4.71212">
        <ele>385</ele>
        <time>2021-05-07T15:06:18Z</time>
      </trkpt>
      <trkpt lat="45.43389" lon="4.71215">
        <ele>385</ele>
        <time>2021-05-07T15:06:21Z</time>
      </trkpt>
      <trkpt lat="45.43386" lon="4.7122">
        <ele>383</ele>
        <time>2021-05-07T15:06:24Z</time>
      </trkpt>
      <trkpt lat="45.43383" lon="4.71223">
        <ele>383</ele>
        <time>2021-05-07T15:06:26Z</time>
      </trkpt>
      <trkpt lat="45.43378" lon="4.71227">
        <ele>382</ele>
        <time>2021-05-07T15:06:28Z</time>
      </trkpt>
      <trkpt lat="45.43374" lon="4.71232">
        <ele>382</ele>
        <time>2021-05-07T15:06:30Z</time>
      </trkpt>
      <trkpt lat="45.4337" lon="4.71236">
        <ele>382</ele>
        <time>2021-05-07T15:06:33Z</time>
      </trkpt>
      <trkpt lat="45.43367" lon="4.7124">
        <ele>382</ele>
        <time>2021-05-07T15:06:34Z</time>
      </trkpt>
      <trkpt lat="45.43363" lon="4.71244">
        <ele>381</ele>
        <time>2021-05-07T15:06:36Z</time>
      </trkpt>
      <trkpt lat="45.43359" lon="4.71248">
        <ele>380</ele>
        <time>2021-05-07T15:06:38Z</time>
      </trkpt>
      <trkpt lat="45.43356" lon="4.71252">
        <ele>379</ele>
        <time>2021-05-07T15:06:40Z</time>
      </trkpt>
      <trkpt lat="45.43352" lon="4.71258">
        <ele>378</ele>
        <time>2021-05-07T15:06:42Z</time>
      </trkpt>
      <trkpt lat="45.43348" lon="4.71261">
        <ele>378</ele>
        <time>2021-05-07T15:06:44Z</time>
      </trkpt>
      <trkpt lat="45.43343" lon="4.71263">
        <ele>378</ele>
        <time>2021-05-07T15:06:46Z</time>
      </trkpt>
      <trkpt lat="45.43338" lon="4.71267">
        <ele>378</ele>
        <time>2021-05-07T15:06:48Z</time>
      </trkpt>
      <trkpt lat="45.43333" lon="4.71272">
        <ele>377</ele>
        <time>2021-05-07T15:06:50Z</time>
      </trkpt>
      <trkpt lat="45.43327" lon="4.71277">
        <ele>377</ele>
        <time>2021-05-07T15:06:52Z</time>
      </trkpt>
      <trkpt lat="45.43321" lon="4.7128">
        <ele>377</ele>
        <time>2021-05-07T15:06:54Z</time>
      </trkpt>
      <trkpt lat="45.43314" lon="4.71281">
        <ele>377</ele>
        <time>2021-05-07T15:06:56Z</time>
      </trkpt>
      <trkpt lat="45.43308" lon="4.71278">
        <ele>377</ele>
        <time>2021-05-07T15:06:58Z</time>
      </trkpt>
      <trkpt lat="45.43304" lon="4.71271">
        <ele>374</ele>
        <time>2021-05-07T15:07:00Z</time>
      </trkpt>
      <trkpt lat="45.433" lon="4.71263">
        <ele>374</ele>
        <time>2021-05-07T15:07:02Z</time>
      </trkpt>
      <trkpt lat="45.43296" lon="4.71255">
        <ele>374</ele>
        <time>2021-05-07T15:07:04Z</time>
      </trkpt>
      <trkpt lat="45.43293" lon="4.71247">
        <ele>373</ele>
        <time>2021-05-07T15:07:06Z</time>
      </trkpt>
      <trkpt lat="45.43288" lon="4.71241">
        <ele>373</ele>
        <time>2021-05-07T15:07:08Z</time>
      </trkpt>
      <trkpt lat="45.43283" lon="4.71237">
        <ele>373</ele>
        <time>2021-05-07T15:07:10Z</time>
      </trkpt>
      <trkpt lat="45.43277" lon="4.71235">
        <ele>372</ele>
        <time>2021-05-07T15:07:12Z</time>
      </trkpt>
      <trkpt lat="45.43272" lon="4.71235">
        <ele>371</ele>
        <time>2021-05-07T15:07:14Z</time>
      </trkpt>
      <trkpt lat="45.43266" lon="4.71236">
        <ele>370</ele>
        <time>2021-05-07T15:07:16Z</time>
      </trkpt>
      <trkpt lat="45.43262" lon="4.7124">
        <ele>370</ele>
        <time>2021-05-07T15:07:18Z</time>
      </trkpt>
      <trkpt lat="45.43258" lon="4.71245">
        <ele>369</ele>
        <time>2021-05-07T15:07:20Z</time>
      </trkpt>
      <trkpt lat="45.43255" lon="4.71253">
        <ele>369</ele>
        <time>2021-05-07T15:07:22Z</time>
      </trkpt>
      <trkpt lat="45.43252" lon="4.71262">
        <ele>369</ele>
        <time>2021-05-07T15:07:24Z</time>
      </trkpt>
      <trkpt lat="45.4325" lon="4.71271">
        <ele>369</ele>
        <time>2021-05-07T15:07:26Z</time>
      </trkpt>
      <trkpt lat="45.43248" lon="4.71279">
        <ele>368</ele>
        <time>2021-05-07T15:07:28Z</time>
      </trkpt>
      <trkpt lat="45.43247" lon="4.71288">
        <ele>368</ele>
        <time>2021-05-07T15:07:30Z</time>
      </trkpt>
      <trkpt lat="45.43246" lon="4.71296">
        <ele>368</ele>
        <time>2021-05-07T15:07:32Z</time>
      </trkpt>
      <trkpt lat="45.43245" lon="4.71305">
        <ele>368</ele>
        <time>2021-05-07T15:07:34Z</time>
      </trkpt>
      <trkpt lat="45.43246" lon="4.71314">
        <ele>369</ele>
        <time>2021-05-07T15:07:36Z</time>
      </trkpt>
      <trkpt lat="45.43247" lon="4.71321">
        <ele>369</ele>
        <time>2021-05-07T15:07:38Z</time>
      </trkpt>
      <trkpt lat="45.4325" lon="4.71328">
        <ele>370</ele>
        <time>2021-05-07T15:07:40Z</time>
      </trkpt>
      <trkpt lat="45.43251" lon="4.71337">
        <ele>370</ele>
        <time>2021-05-07T15:07:42Z</time>
      </trkpt>
      <trkpt lat="45.4325" lon="4.71346">
        <ele>370</ele>
        <time>2021-05-07T15:07:44Z</time>
      </trkpt>
      <trkpt lat="45.43247" lon="4.71352">
        <ele>370</ele>
        <time>2021-05-07T15:07:46Z</time>
      </trkpt>
      <trkpt lat="45.43243" lon="4.71359">
        <ele>370</ele>
        <time>2021-05-07T15:07:48Z</time>
      </trkpt>
      <trkpt lat="45.43239" lon="4.71366">
        <ele>370</ele>
        <time>2021-05-07T15:07:50Z</time>
      </trkpt>
      <trkpt lat="45.43235" lon="4.71373">
        <ele>369</ele>
        <time>2021-05-07T15:07:52Z</time>
      </trkpt>
      <trkpt lat="45.4323" lon="4.7138">
        <ele>369</ele>
        <time>2021-05-07T15:07:54Z</time>
      </trkpt>
      <trkpt lat="45.43226" lon="4.71387">
        <ele>369</ele>
        <time>2021-05-07T15:07:56Z</time>
      </trkpt>
      <trkpt lat="45.43222" lon="4.71393">
        <ele>368</ele>
        <time>2021-05-07T15:07:58Z</time>
      </trkpt>
      <trkpt lat="45.43218" lon="4.71399">
        <ele>368</ele>
        <time>2021-05-07T15:08:00Z</time>
      </trkpt>
      <trkpt lat="45.43213" lon="4.71406">
        <ele>368</ele>
        <time>2021-05-07T15:08:02Z</time>
      </trkpt>
      <trkpt lat="45.43208" lon="4.71412">
        <ele>367</ele>
        <time>2021-05-07T15:08:04Z</time>
      </trkpt>
      <trkpt lat="45.43203" lon="4.71419">
        <ele>366</ele>
        <time>2021-05-07T15:08:06Z</time>
      </trkpt>
      <trkpt lat="45.43201" lon="4.71422">
        <ele>366</ele>
        <time>2021-05-07T15:08:07Z</time>
      </trkpt>
      <trkpt lat="45.43196" lon="4.71429">
        <ele>366</ele>
        <time>2021-05-07T15:08:09Z</time>
      </trkpt>
      <trkpt lat="45.43192" lon="4.71435">
        <ele>366</ele>
        <time>2021-05-07T15:08:11Z</time>
      </trkpt>
      <trkpt lat="45.43189" lon="4.71441">
        <ele>366</ele>
        <time>2021-05-07T15:08:13Z</time>
      </trkpt>
      <trkpt lat="45.43185" lon="4.71447">
        <ele>366</ele>
        <time>2021-05-07T15:08:15Z</time>
      </trkpt>
      <trkpt lat="45.4318" lon="4.71452">
        <ele>366</ele>
        <time>2021-05-07T15:08:17Z</time>
      </trkpt>
      <trkpt lat="45.43175" lon="4.71457">
        <ele>366</ele>
        <time>2021-05-07T15:08:19Z</time>
      </trkpt>
      <trkpt lat="45.4317" lon="4.7146">
        <ele>366</ele>
        <time>2021-05-07T15:08:21Z</time>
      </trkpt>
      <trkpt lat="45.43165" lon="4.71464">
        <ele>366</ele>
        <time>2021-05-07T15:08:23Z</time>
      </trkpt>
      <trkpt lat="45.43162" lon="4.71467">
        <ele>366</ele>
        <time>2021-05-07T15:08:24Z</time>
      </trkpt>
      <trkpt lat="45.43155" lon="4.71472">
        <ele>366</ele>
        <time>2021-05-07T15:08:26Z</time>
      </trkpt>
      <trkpt lat="45.4315" lon="4.71476">
        <ele>366</ele>
        <time>2021-05-07T15:08:28Z</time>
      </trkpt>
      <trkpt lat="45.43144" lon="4.7148">
        <ele>366</ele>
        <time>2021-05-07T15:08:30Z</time>
      </trkpt>
      <trkpt lat="45.43139" lon="4.71483">
        <ele>366</ele>
        <time>2021-05-07T15:08:32Z</time>
      </trkpt>
      <trkpt lat="45.43134" lon="4.71486">
        <ele>366</ele>
        <time>2021-05-07T15:08:34Z</time>
      </trkpt>
      <trkpt lat="45.43129" lon="4.7149">
        <ele>367</ele>
        <time>2021-05-07T15:08:36Z</time>
      </trkpt>
      <trkpt lat="45.43123" lon="4.71494">
        <ele>367</ele>
        <time>2021-05-07T15:08:38Z</time>
      </trkpt>
      <trkpt lat="45.43117" lon="4.71497">
        <ele>366</ele>
        <time>2021-05-07T15:08:40Z</time>
      </trkpt>
      <trkpt lat="45.43111" lon="4.715">
        <ele>366</ele>
        <time>2021-05-07T15:08:42Z</time>
      </trkpt>
      <trkpt lat="45.43106" lon="4.71504">
        <ele>367</ele>
        <time>2021-05-07T15:08:44Z</time>
      </trkpt>
      <trkpt lat="45.431" lon="4.71508">
        <ele>367</ele>
        <time>2021-05-07T15:08:46Z</time>
      </trkpt>
      <trkpt lat="45.43094" lon="4.7151">
        <ele>367</ele>
        <time>2021-05-07T15:08:48Z</time>
      </trkpt>
      <trkpt lat="45.4309" lon="4.71513">
        <ele>367</ele>
        <time>2021-05-07T15:08:50Z</time>
      </trkpt>
      <trkpt lat="45.43086" lon="4.71517">
        <ele>367</ele>
        <time>2021-05-07T15:08:52Z</time>
      </trkpt>
      <trkpt lat="45.43082" lon="4.71522">
        <ele>367</ele>
        <time>2021-05-07T15:08:54Z</time>
      </trkpt>
      <trkpt lat="45.43078" lon="4.71525">
        <ele>367</ele>
        <time>2021-05-07T15:08:56Z</time>
      </trkpt>
      <trkpt lat="45.43074" lon="4.71529">
        <ele>368</ele>
        <time>2021-05-07T15:08:58Z</time>
      </trkpt>
      <trkpt lat="45.43069" lon="4.71533">
        <ele>368</ele>
        <time>2021-05-07T15:09:00Z</time>
      </trkpt>
      <trkpt lat="45.43065" lon="4.7154">
        <ele>368</ele>
        <time>2021-05-07T15:09:02Z</time>
      </trkpt>
      <trkpt lat="45.43062" lon="4.71547">
        <ele>368</ele>
        <time>2021-05-07T15:09:04Z</time>
      </trkpt>
      <trkpt lat="45.4306" lon="4.71554">
        <ele>367</ele>
        <time>2021-05-07T15:09:06Z</time>
      </trkpt>
      <trkpt lat="45.43057" lon="4.71561">
        <ele>366</ele>
        <time>2021-05-07T15:09:08Z</time>
      </trkpt>
      <trkpt lat="45.43054" lon="4.71568">
        <ele>367</ele>
        <time>2021-05-07T15:09:10Z</time>
      </trkpt>
      <trkpt lat="45.4305" lon="4.71574">
        <ele>367</ele>
        <time>2021-05-07T15:09:12Z</time>
      </trkpt>
      <trkpt lat="45.43048" lon="4.71581">
        <ele>366</ele>
        <time>2021-05-07T15:09:14Z</time>
      </trkpt>
      <trkpt lat="45.43044" lon="4.71588">
        <ele>365</ele>
        <time>2021-05-07T15:09:16Z</time>
      </trkpt>
      <trkpt lat="45.43041" lon="4.71595">
        <ele>365</ele>
        <time>2021-05-07T15:09:18Z</time>
      </trkpt>
      <trkpt lat="45.43037" lon="4.71601">
        <ele>364</ele>
        <time>2021-05-07T15:09:20Z</time>
      </trkpt>
      <trkpt lat="45.43034" lon="4.71608">
        <ele>363</ele>
        <time>2021-05-07T15:09:22Z</time>
      </trkpt>
      <trkpt lat="45.43029" lon="4.71614">
        <ele>363</ele>
        <time>2021-05-07T15:09:24Z</time>
      </trkpt>
      <trkpt lat="45.43024" lon="4.71617">
        <ele>363</ele>
        <time>2021-05-07T15:09:26Z</time>
      </trkpt>
      <trkpt lat="45.43018" lon="4.71619">
        <ele>362</ele>
        <time>2021-05-07T15:09:28Z</time>
      </trkpt>
      <trkpt lat="45.43013" lon="4.7162">
        <ele>361</ele>
        <time>2021-05-07T15:09:30Z</time>
      </trkpt>
      <trkpt lat="45.4301" lon="4.71625">
        <ele>361</ele>
        <time>2021-05-07T15:09:32Z</time>
      </trkpt>
      <trkpt lat="45.4301" lon="4.71632">
        <ele>360</ele>
        <time>2021-05-07T15:09:34Z</time>
      </trkpt>
      <trkpt lat="45.4301" lon="4.71639">
        <ele>360</ele>
        <time>2021-05-07T15:09:36Z</time>
      </trkpt>
      <trkpt lat="45.43012" lon="4.71646">
        <ele>359</ele>
        <time>2021-05-07T15:09:38Z</time>
      </trkpt>
      <trkpt lat="45.43017" lon="4.71653">
        <ele>359</ele>
        <time>2021-05-07T15:09:40Z</time>
      </trkpt>
      <trkpt lat="45.43021" lon="4.71659">
        <ele>359</ele>
        <time>2021-05-07T15:09:42Z</time>
      </trkpt>
      <trkpt lat="45.43024" lon="4.71663">
        <ele>359</ele>
        <time>2021-05-07T15:09:48Z</time>
      </trkpt>
      <trkpt lat="45.43027" lon="4.71668">
        <ele>359</ele>
        <time>2021-05-07T15:09:50Z</time>
      </trkpt>
      <trkpt lat="45.4303" lon="4.71675">
        <ele>359</ele>
        <time>2021-05-07T15:09:52Z</time>
      </trkpt>
      <trkpt lat="45.43033" lon="4.7168">
        <ele>359</ele>
        <time>2021-05-07T15:09:54Z</time>
      </trkpt>
      <trkpt lat="45.43035" lon="4.71686">
        <ele>359</ele>
        <time>2021-05-07T15:09:56Z</time>
      </trkpt>
      <trkpt lat="45.43036" lon="4.71693">
        <ele>359</ele>
        <time>2021-05-07T15:09:58Z</time>
      </trkpt>
      <trkpt lat="45.43038" lon="4.71702">
        <ele>359</ele>
        <time>2021-05-07T15:10:00Z</time>
      </trkpt>
      <trkpt lat="45.4304" lon="4.71711">
        <ele>359</ele>
        <time>2021-05-07T15:10:02Z</time>
      </trkpt>
      <trkpt lat="45.4304" lon="4.7172">
        <ele>359</ele>
        <time>2021-05-07T15:10:04Z</time>
      </trkpt>
      <trkpt lat="45.43042" lon="4.71727">
        <ele>358</ele>
        <time>2021-05-07T15:10:06Z</time>
      </trkpt>
      <trkpt lat="45.43044" lon="4.71733">
        <ele>357</ele>
        <time>2021-05-07T15:10:08Z</time>
      </trkpt>
      <trkpt lat="45.43046" lon="4.7174">
        <ele>357</ele>
        <time>2021-05-07T15:10:10Z</time>
      </trkpt>
      <trkpt lat="45.43049" lon="4.71748">
        <ele>357</ele>
        <time>2021-05-07T15:10:12Z</time>
      </trkpt>
      <trkpt lat="45.43052" lon="4.71755">
        <ele>356</ele>
        <time>2021-05-07T15:10:14Z</time>
      </trkpt>
      <trkpt lat="45.43056" lon="4.71763">
        <ele>356</ele>
        <time>2021-05-07T15:10:16Z</time>
      </trkpt>
      <trkpt lat="45.4306" lon="4.71771">
        <ele>356</ele>
        <time>2021-05-07T15:10:18Z</time>
      </trkpt>
      <trkpt lat="45.43064" lon="4.71778">
        <ele>356</ele>
        <time>2021-05-07T15:10:21Z</time>
      </trkpt>
      <trkpt lat="45.43068" lon="4.71785">
        <ele>356</ele>
        <time>2021-05-07T15:10:22Z</time>
      </trkpt>
      <trkpt lat="45.43071" lon="4.71791">
        <ele>355</ele>
        <time>2021-05-07T15:10:24Z</time>
      </trkpt>
      <trkpt lat="45.43073" lon="4.71798">
        <ele>355</ele>
        <time>2021-05-07T15:10:26Z</time>
      </trkpt>
      <trkpt lat="45.43077" lon="4.71805">
        <ele>355</ele>
        <time>2021-05-07T15:10:28Z</time>
      </trkpt>
      <trkpt lat="45.43081" lon="4.71813">
        <ele>356</ele>
        <time>2021-05-07T15:10:30Z</time>
      </trkpt>
      <trkpt lat="45.43083" lon="4.7182">
        <ele>356</ele>
        <time>2021-05-07T15:10:32Z</time>
      </trkpt>
      <trkpt lat="45.43087" lon="4.71826">
        <ele>356</ele>
        <time>2021-05-07T15:10:34Z</time>
      </trkpt>
      <trkpt lat="45.43089" lon="4.71834">
        <ele>357</ele>
        <time>2021-05-07T15:10:36Z</time>
      </trkpt>
      <trkpt lat="45.43091" lon="4.71841">
        <ele>356</ele>
        <time>2021-05-07T15:10:38Z</time>
      </trkpt>
      <trkpt lat="45.43093" lon="4.71849">
        <ele>355</ele>
        <time>2021-05-07T15:10:40Z</time>
      </trkpt>
      <trkpt lat="45.43095" lon="4.71856">
        <ele>355</ele>
        <time>2021-05-07T15:10:42Z</time>
      </trkpt>
      <trkpt lat="45.43097" lon="4.71863">
        <ele>356</ele>
        <time>2021-05-07T15:10:44Z</time>
      </trkpt>
      <trkpt lat="45.43099" lon="4.71867">
        <ele>356</ele>
        <time>2021-05-07T15:10:46Z</time>
      </trkpt>
      <trkpt lat="45.43101" lon="4.71873">
        <ele>356</ele>
        <time>2021-05-07T15:10:48Z</time>
      </trkpt>
      <trkpt lat="45.43104" lon="4.7188">
        <ele>356</ele>
        <time>2021-05-07T15:10:50Z</time>
      </trkpt>
      <trkpt lat="45.43107" lon="4.71887">
        <ele>356</ele>
        <time>2021-05-07T15:10:52Z</time>
      </trkpt>
      <trkpt lat="45.43109" lon="4.71895">
        <ele>356</ele>
        <time>2021-05-07T15:10:54Z</time>
      </trkpt>
      <trkpt lat="45.43111" lon="4.71903">
        <ele>356</ele>
        <time>2021-05-07T15:10:56Z</time>
      </trkpt>
      <trkpt lat="45.43112" lon="4.71911">
        <ele>356</ele>
        <time>2021-05-07T15:10:59Z</time>
      </trkpt>
      <trkpt lat="45.43112" lon="4.71918">
        <ele>356</ele>
        <time>2021-05-07T15:11:00Z</time>
      </trkpt>
      <trkpt lat="45.43109" lon="4.71926">
        <ele>356</ele>
        <time>2021-05-07T15:11:02Z</time>
      </trkpt>
      <trkpt lat="45.43105" lon="4.71931">
        <ele>355</ele>
        <time>2021-05-07T15:11:04Z</time>
      </trkpt>
      <trkpt lat="45.43099" lon="4.71938">
        <ele>355</ele>
        <time>2021-05-07T15:11:06Z</time>
      </trkpt>
      <trkpt lat="45.43097" lon="4.71941">
        <ele>354</ele>
        <time>2021-05-07T15:11:07Z</time>
      </trkpt>
      <trkpt lat="45.43094" lon="4.71944">
        <ele>354</ele>
        <time>2021-05-07T15:11:08Z</time>
      </trkpt>
      <trkpt lat="45.43089" lon="4.7195">
        <ele>353</ele>
        <time>2021-05-07T15:11:10Z</time>
      </trkpt>
      <trkpt lat="45.43083" lon="4.71956">
        <ele>352</ele>
        <time>2021-05-07T15:11:12Z</time>
      </trkpt>
      <trkpt lat="45.43079" lon="4.71962">
        <ele>352</ele>
        <time>2021-05-07T15:11:14Z</time>
      </trkpt>
      <trkpt lat="45.43074" lon="4.71969">
        <ele>352</ele>
        <time>2021-05-07T15:11:16Z</time>
      </trkpt>
      <trkpt lat="45.43069" lon="4.71975">
        <ele>351</ele>
        <time>2021-05-07T15:11:18Z</time>
      </trkpt>
      <trkpt lat="45.43064" lon="4.71982">
        <ele>351</ele>
        <time>2021-05-07T15:11:20Z</time>
      </trkpt>
      <trkpt lat="45.43061" lon="4.71985">
        <ele>349</ele>
        <time>2021-05-07T15:11:21Z</time>
      </trkpt>
      <trkpt lat="45.43056" lon="4.71991">
        <ele>349</ele>
        <time>2021-05-07T15:11:23Z</time>
      </trkpt>
      <trkpt lat="45.43051" lon="4.71997">
        <ele>349</ele>
        <time>2021-05-07T15:11:25Z</time>
      </trkpt>
      <trkpt lat="45.43046" lon="4.72003">
        <ele>349</ele>
        <time>2021-05-07T15:11:27Z</time>
      </trkpt>
      <trkpt lat="45.43043" lon="4.72005">
        <ele>348</ele>
        <time>2021-05-07T15:11:28Z</time>
      </trkpt>
      <trkpt lat="45.43039" lon="4.7201">
        <ele>347</ele>
        <time>2021-05-07T15:11:30Z</time>
      </trkpt>
      <trkpt lat="45.43035" lon="4.72015">
        <ele>347</ele>
        <time>2021-05-07T15:11:32Z</time>
      </trkpt>
      <trkpt lat="45.43031" lon="4.7202">
        <ele>347</ele>
        <time>2021-05-07T15:11:34Z</time>
      </trkpt>
      <trkpt lat="45.43027" lon="4.72023">
        <ele>347</ele>
        <time>2021-05-07T15:11:36Z</time>
      </trkpt>
      <trkpt lat="45.43023" lon="4.72026">
        <ele>346</ele>
        <time>2021-05-07T15:11:38Z</time>
      </trkpt>
      <trkpt lat="45.43019" lon="4.7203">
        <ele>346</ele>
        <time>2021-05-07T15:11:40Z</time>
      </trkpt>
      <trkpt lat="45.43015" lon="4.72033">
        <ele>346</ele>
        <time>2021-05-07T15:11:43Z</time>
      </trkpt>
      <trkpt lat="45.43011" lon="4.72036">
        <ele>347</ele>
        <time>2021-05-07T15:11:45Z</time>
      </trkpt>
      <trkpt lat="45.43006" lon="4.72039">
        <ele>347</ele>
        <time>2021-05-07T15:11:47Z</time>
      </trkpt>
      <trkpt lat="45.43" lon="4.72042">
        <ele>347</ele>
        <time>2021-05-07T15:11:49Z</time>
      </trkpt>
      <trkpt lat="45.42995" lon="4.72046">
        <ele>348</ele>
        <time>2021-05-07T15:11:51Z</time>
      </trkpt>
      <trkpt lat="45.4299" lon="4.72049">
        <ele>348</ele>
        <time>2021-05-07T15:11:53Z</time>
      </trkpt>
      <trkpt lat="45.42986" lon="4.72055">
        <ele>348</ele>
        <time>2021-05-07T15:11:55Z</time>
      </trkpt>
      <trkpt lat="45.42981" lon="4.7206">
        <ele>348</ele>
        <time>2021-05-07T15:11:57Z</time>
      </trkpt>
      <trkpt lat="45.42976" lon="4.72066">
        <ele>349</ele>
        <time>2021-05-07T15:11:59Z</time>
      </trkpt>
      <trkpt lat="45.42971" lon="4.72072">
        <ele>349</ele>
        <time>2021-05-07T15:12:01Z</time>
      </trkpt>
      <trkpt lat="45.42966" lon="4.72077">
        <ele>350</ele>
        <time>2021-05-07T15:12:03Z</time>
      </trkpt>
      <trkpt lat="45.42962" lon="4.72083">
        <ele>350</ele>
        <time>2021-05-07T15:12:05Z</time>
      </trkpt>
      <trkpt lat="45.42957" lon="4.72089">
        <ele>351</ele>
        <time>2021-05-07T15:12:07Z</time>
      </trkpt>
      <trkpt lat="45.42955" lon="4.72094">
        <ele>351</ele>
        <time>2021-05-07T15:12:09Z</time>
      </trkpt>
      <trkpt lat="45.42952" lon="4.721">
        <ele>352</ele>
        <time>2021-05-07T15:12:11Z</time>
      </trkpt>
      <trkpt lat="45.42949" lon="4.72105">
        <ele>352</ele>
        <time>2021-05-07T15:12:14Z</time>
      </trkpt>
      <trkpt lat="45.42947" lon="4.7211">
        <ele>352</ele>
        <time>2021-05-07T15:12:17Z</time>
      </trkpt>
      <trkpt lat="45.42944" lon="4.72114">
        <ele>352</ele>
        <time>2021-05-07T15:12:20Z</time>
      </trkpt>
      <trkpt lat="45.42941" lon="4.72119">
        <ele>352</ele>
        <time>2021-05-07T15:12:23Z</time>
      </trkpt>
      <trkpt lat="45.42938" lon="4.72124">
        <ele>352</ele>
        <time>2021-05-07T15:12:26Z</time>
      </trkpt>
      <trkpt lat="45.42933" lon="4.72128">
        <ele>352</ele>
        <time>2021-05-07T15:12:29Z</time>
      </trkpt>
      <trkpt lat="45.4293" lon="4.72129">
        <ele>353</ele>
        <time>2021-05-07T15:12:31Z</time>
      </trkpt>
      <trkpt lat="45.42925" lon="4.72129">
        <ele>353</ele>
        <time>2021-05-07T15:12:33Z</time>
      </trkpt>
      <trkpt lat="45.4292" lon="4.72128">
        <ele>354</ele>
        <time>2021-05-07T15:12:35Z</time>
      </trkpt>
      <trkpt lat="45.42915" lon="4.72128">
        <ele>354</ele>
        <time>2021-05-07T15:12:37Z</time>
      </trkpt>
      <trkpt lat="45.4291" lon="4.72128">
        <ele>354</ele>
        <time>2021-05-07T15:12:39Z</time>
      </trkpt>
      <trkpt lat="45.42906" lon="4.7213">
        <ele>353</ele>
        <time>2021-05-07T15:12:41Z</time>
      </trkpt>
      <trkpt lat="45.42902" lon="4.72134">
        <ele>352</ele>
        <time>2021-05-07T15:12:43Z</time>
      </trkpt>
      <trkpt lat="45.42897" lon="4.72138">
        <ele>352</ele>
        <time>2021-05-07T15:12:45Z</time>
      </trkpt>
      <trkpt lat="45.42893" lon="4.72143">
        <ele>352</ele>
        <time>2021-05-07T15:12:47Z</time>
      </trkpt>
      <trkpt lat="45.42888" lon="4.72149">
        <ele>352</ele>
        <time>2021-05-07T15:12:49Z</time>
      </trkpt>
      <trkpt lat="45.42883" lon="4.72154">
        <ele>352</ele>
        <time>2021-05-07T15:12:51Z</time>
      </trkpt>
      <trkpt lat="45.42879" lon="4.7216">
        <ele>352</ele>
        <time>2021-05-07T15:12:53Z</time>
      </trkpt>
      <trkpt lat="45.42875" lon="4.72164">
        <ele>352</ele>
        <time>2021-05-07T15:12:55Z</time>
      </trkpt>
      <trkpt lat="45.42871" lon="4.72169">
        <ele>352</ele>
        <time>2021-05-07T15:12:57Z</time>
      </trkpt>
      <trkpt lat="45.42866" lon="4.72174">
        <ele>353</ele>
        <time>2021-05-07T15:12:59Z</time>
      </trkpt>
      <trkpt lat="45.42861" lon="4.72178">
        <ele>353</ele>
        <time>2021-05-07T15:13:01Z</time>
      </trkpt>
      <trkpt lat="45.42856" lon="4.72182">
        <ele>354</ele>
        <time>2021-05-07T15:13:03Z</time>
      </trkpt>
      <trkpt lat="45.42851" lon="4.72186">
        <ele>354</ele>
        <time>2021-05-07T15:13:05Z</time>
      </trkpt>
      <trkpt lat="45.42846" lon="4.7219">
        <ele>354</ele>
        <time>2021-05-07T15:13:07Z</time>
      </trkpt>
      <trkpt lat="45.42841" lon="4.72192">
        <ele>353</ele>
        <time>2021-05-07T15:13:09Z</time>
      </trkpt>
      <trkpt lat="45.42837" lon="4.72196">
        <ele>353</ele>
        <time>2021-05-07T15:13:11Z</time>
      </trkpt>
      <trkpt lat="45.42834" lon="4.72201">
        <ele>353</ele>
        <time>2021-05-07T15:13:13Z</time>
      </trkpt>
      <trkpt lat="45.42832" lon="4.72208">
        <ele>353</ele>
        <time>2021-05-07T15:13:15Z</time>
      </trkpt>
      <trkpt lat="45.4283" lon="4.72215">
        <ele>353</ele>
        <time>2021-05-07T15:13:17Z</time>
      </trkpt>
      <trkpt lat="45.42827" lon="4.72222">
        <ele>353</ele>
        <time>2021-05-07T15:13:19Z</time>
      </trkpt>
      <trkpt lat="45.42825" lon="4.72229">
        <ele>353</ele>
        <time>2021-05-07T15:13:21Z</time>
      </trkpt>
      <trkpt lat="45.42823" lon="4.72237">
        <ele>352</ele>
        <time>2021-05-07T15:13:23Z</time>
      </trkpt>
      <trkpt lat="45.42822" lon="4.72246">
        <ele>351</ele>
        <time>2021-05-07T15:13:25Z</time>
      </trkpt>
      <trkpt lat="45.42822" lon="4.72254">
        <ele>351</ele>
        <time>2021-05-07T15:13:27Z</time>
      </trkpt>
      <trkpt lat="45.42822" lon="4.72262">
        <ele>350</ele>
        <time>2021-05-07T15:13:29Z</time>
      </trkpt>
      <trkpt lat="45.42823" lon="4.72269">
        <ele>349</ele>
        <time>2021-05-07T15:13:31Z</time>
      </trkpt>
      <trkpt lat="45.42824" lon="4.72277">
        <ele>348</ele>
        <time>2021-05-07T15:13:33Z</time>
      </trkpt>
      <trkpt lat="45.42826" lon="4.72283">
        <ele>348</ele>
        <time>2021-05-07T15:13:35Z</time>
      </trkpt>
      <trkpt lat="45.42829" lon="4.7229">
        <ele>348</ele>
        <time>2021-05-07T15:13:37Z</time>
      </trkpt>
      <trkpt lat="45.42831" lon="4.72298">
        <ele>346</ele>
        <time>2021-05-07T15:13:39Z</time>
      </trkpt>
      <trkpt lat="45.42832" lon="4.72306">
        <ele>345</ele>
        <time>2021-05-07T15:13:41Z</time>
      </trkpt>
      <trkpt lat="45.42833" lon="4.72314">
        <ele>345</ele>
        <time>2021-05-07T15:13:43Z</time>
      </trkpt>
      <trkpt lat="45.42834" lon="4.72322">
        <ele>345</ele>
        <time>2021-05-07T15:13:45Z</time>
      </trkpt>
      <trkpt lat="45.42835" lon="4.7233">
        <ele>345</ele>
        <time>2021-05-07T15:13:47Z</time>
      </trkpt>
      <trkpt lat="45.42834" lon="4.72338">
        <ele>344</ele>
        <time>2021-05-07T15:13:49Z</time>
      </trkpt>
      <trkpt lat="45.42834" lon="4.72345">
        <ele>344</ele>
        <time>2021-05-07T15:13:51Z</time>
      </trkpt>
      <trkpt lat="45.42834" lon="4.72354">
        <ele>344</ele>
        <time>2021-05-07T15:13:53Z</time>
      </trkpt>
      <trkpt lat="45.42834" lon="4.72362">
        <ele>343</ele>
        <time>2021-05-07T15:13:55Z</time>
      </trkpt>
      <trkpt lat="45.42834" lon="4.7237">
        <ele>343</ele>
        <time>2021-05-07T15:13:57Z</time>
      </trkpt>
      <trkpt lat="45.42834" lon="4.72375">
        <ele>342</ele>
        <time>2021-05-07T15:13:59Z</time>
      </trkpt>
      <trkpt lat="45.42835" lon="4.72381">
        <ele>341</ele>
        <time>2021-05-07T15:14:03Z</time>
      </trkpt>
      <trkpt lat="45.42836" lon="4.72387">
        <ele>341</ele>
        <time>2021-05-07T15:14:06Z</time>
      </trkpt>
      <trkpt lat="45.42837" lon="4.72393">
        <ele>342</ele>
        <time>2021-05-07T15:14:10Z</time>
      </trkpt>
      <trkpt lat="45.42838" lon="4.72398">
        <ele>342</ele>
        <time>2021-05-07T15:14:13Z</time>
      </trkpt>
      <trkpt lat="45.42839" lon="4.72403">
        <ele>342</ele>
        <time>2021-05-07T15:14:18Z</time>
      </trkpt>
      <trkpt lat="45.42837" lon="4.72398">
        <ele>341</ele>
        <time>2021-05-07T15:14:24Z</time>
      </trkpt>
      <trkpt lat="45.42835" lon="4.72391">
        <ele>341</ele>
        <time>2021-05-07T15:14:26Z</time>
      </trkpt>
      <trkpt lat="45.42832" lon="4.72384">
        <ele>341</ele>
        <time>2021-05-07T15:14:28Z</time>
      </trkpt>
      <trkpt lat="45.42829" lon="4.72377">
        <ele>341</ele>
        <time>2021-05-07T15:14:30Z</time>
      </trkpt>
      <trkpt lat="45.42827" lon="4.7237">
        <ele>341</ele>
        <time>2021-05-07T15:14:32Z</time>
      </trkpt>
      <trkpt lat="45.42827" lon="4.72362">
        <ele>341</ele>
        <time>2021-05-07T15:14:34Z</time>
      </trkpt>
      <trkpt lat="45.42827" lon="4.72355">
        <ele>341</ele>
        <time>2021-05-07T15:14:36Z</time>
      </trkpt>
      <trkpt lat="45.42826" lon="4.72347">
        <ele>342</ele>
        <time>2021-05-07T15:14:38Z</time>
      </trkpt>
      <trkpt lat="45.42824" lon="4.72344">
        <ele>343</ele>
        <time>2021-05-07T15:14:40Z</time>
      </trkpt>
      <trkpt lat="45.42819" lon="4.7234">
        <ele>343</ele>
        <time>2021-05-07T15:14:42Z</time>
      </trkpt>
      <trkpt lat="45.42815" lon="4.72336">
        <ele>342</ele>
        <time>2021-05-07T15:14:44Z</time>
      </trkpt>
      <trkpt lat="45.4281" lon="4.72333">
        <ele>342</ele>
        <time>2021-05-07T15:14:46Z</time>
      </trkpt>
      <trkpt lat="45.42806" lon="4.72336">
        <ele>341</ele>
        <time>2021-05-07T15:14:49Z</time>
      </trkpt>
      <trkpt lat="45.42807" lon="4.72341">
        <ele>340</ele>
        <time>2021-05-07T15:14:51Z</time>
      </trkpt>
      <trkpt lat="45.4281" lon="4.72346">
        <ele>339</ele>
        <time>2021-05-07T15:14:53Z</time>
      </trkpt>
      <trkpt lat="45.42813" lon="4.72352">
        <ele>339</ele>
        <time>2021-05-07T15:14:55Z</time>
      </trkpt>
      <trkpt lat="45.42816" lon="4.72359">
        <ele>339</ele>
        <time>2021-05-07T15:14:57Z</time>
      </trkpt>
      <trkpt lat="45.42817" lon="4.72368">
        <ele>339</ele>
        <time>2021-05-07T15:14:59Z</time>
      </trkpt>
      <trkpt lat="45.42816" lon="4.72376">
        <ele>339</ele>
        <time>2021-05-07T15:15:01Z</time>
      </trkpt>
      <trkpt lat="45.42816" lon="4.7238">
        <ele>336</ele>
        <time>2021-05-07T15:15:02Z</time>
      </trkpt>
      <trkpt lat="45.42814" lon="4.72388">
        <ele>335</ele>
        <time>2021-05-07T15:15:04Z</time>
      </trkpt>
      <trkpt lat="45.42813" lon="4.72398">
        <ele>335</ele>
        <time>2021-05-07T15:15:06Z</time>
      </trkpt>
      <trkpt lat="45.42813" lon="4.72407">
        <ele>335</ele>
        <time>2021-05-07T15:15:08Z</time>
      </trkpt>
      <trkpt lat="45.42812" lon="4.72415">
        <ele>335</ele>
        <time>2021-05-07T15:15:10Z</time>
      </trkpt>
      <trkpt lat="45.42812" lon="4.72424">
        <ele>335</ele>
        <time>2021-05-07T15:15:12Z</time>
      </trkpt>
      <trkpt lat="45.42811" lon="4.72433">
        <ele>335</ele>
        <time>2021-05-07T15:15:14Z</time>
      </trkpt>
      <trkpt lat="45.42812" lon="4.7244">
        <ele>334</ele>
        <time>2021-05-07T15:15:16Z</time>
      </trkpt>
      <trkpt lat="45.42813" lon="4.72449">
        <ele>334</ele>
        <time>2021-05-07T15:15:18Z</time>
      </trkpt>
      <trkpt lat="45.42817" lon="4.72454">
        <ele>334</ele>
        <time>2021-05-07T15:15:20Z</time>
      </trkpt>
      <trkpt lat="45.42821" lon="4.72461">
        <ele>334</ele>
        <time>2021-05-07T15:15:22Z</time>
      </trkpt>
      <trkpt lat="45.42826" lon="4.72467">
        <ele>334</ele>
        <time>2021-05-07T15:15:24Z</time>
      </trkpt>
      <trkpt lat="45.4283" lon="4.72473">
        <ele>334</ele>
        <time>2021-05-07T15:15:26Z</time>
      </trkpt>
      <trkpt lat="45.42833" lon="4.7248">
        <ele>334</ele>
        <time>2021-05-07T15:15:28Z</time>
      </trkpt>
      <trkpt lat="45.42835" lon="4.72488">
        <ele>333</ele>
        <time>2021-05-07T15:15:30Z</time>
      </trkpt>
      <trkpt lat="45.42835" lon="4.72497">
        <ele>332</ele>
        <time>2021-05-07T15:15:32Z</time>
      </trkpt>
      <trkpt lat="45.42835" lon="4.72503">
        <ele>331</ele>
        <time>2021-05-07T15:15:33Z</time>
      </trkpt>
      <trkpt lat="45.42835" lon="4.72512">
        <ele>330</ele>
        <time>2021-05-07T15:15:35Z</time>
      </trkpt>
      <trkpt lat="45.42834" lon="4.72521">
        <ele>330</ele>
        <time>2021-05-07T15:15:37Z</time>
      </trkpt>
      <trkpt lat="45.42833" lon="4.72529">
        <ele>329</ele>
        <time>2021-05-07T15:15:39Z</time>
      </trkpt>
      <trkpt lat="45.42832" lon="4.72538">
        <ele>329</ele>
        <time>2021-05-07T15:15:41Z</time>
      </trkpt>
      <trkpt lat="45.42831" lon="4.72546">
        <ele>329</ele>
        <time>2021-05-07T15:15:43Z</time>
      </trkpt>
      <trkpt lat="45.42829" lon="4.72554">
        <ele>328</ele>
        <time>2021-05-07T15:15:45Z</time>
      </trkpt>
      <trkpt lat="45.42827" lon="4.72562">
        <ele>327</ele>
        <time>2021-05-07T15:15:47Z</time>
      </trkpt>
      <trkpt lat="45.42826" lon="4.7257">
        <ele>326</ele>
        <time>2021-05-07T15:15:49Z</time>
      </trkpt>
      <trkpt lat="45.42825" lon="4.72577">
        <ele>326</ele>
        <time>2021-05-07T15:15:51Z</time>
      </trkpt>
      <trkpt lat="45.42823" lon="4.72585">
        <ele>325</ele>
        <time>2021-05-07T15:15:53Z</time>
      </trkpt>
      <trkpt lat="45.42822" lon="4.72593">
        <ele>324</ele>
        <time>2021-05-07T15:15:55Z</time>
      </trkpt>
      <trkpt lat="45.42822" lon="4.72601">
        <ele>324</ele>
        <time>2021-05-07T15:15:57Z</time>
      </trkpt>
      <trkpt lat="45.42823" lon="4.72609">
        <ele>324</ele>
        <time>2021-05-07T15:15:59Z</time>
      </trkpt>
      <trkpt lat="45.42827" lon="4.7261">
        <ele>324</ele>
        <time>2021-05-07T15:16:01Z</time>
      </trkpt>
      <trkpt lat="45.42831" lon="4.7261">
        <ele>324</ele>
        <time>2021-05-07T15:16:03Z</time>
      </trkpt>
      <trkpt lat="45.42836" lon="4.7261">
        <ele>324</ele>
        <time>2021-05-07T15:16:05Z</time>
      </trkpt>
      <trkpt lat="45.4284" lon="4.72612">
        <ele>323</ele>
        <time>2021-05-07T15:16:07Z</time>
      </trkpt>
      <trkpt lat="45.42846" lon="4.72612">
        <ele>324</ele>
        <time>2021-05-07T15:16:09Z</time>
      </trkpt>
      <trkpt lat="45.42851" lon="4.72614">
        <ele>324</ele>
        <time>2021-05-07T15:16:11Z</time>
      </trkpt>
      <trkpt lat="45.42856" lon="4.72616">
        <ele>324</ele>
        <time>2021-05-07T15:16:13Z</time>
      </trkpt>
      <trkpt lat="45.42861" lon="4.72618">
        <ele>324</ele>
        <time>2021-05-07T15:16:15Z</time>
      </trkpt>
      <trkpt lat="45.42867" lon="4.7262">
        <ele>324</ele>
        <time>2021-05-07T15:16:17Z</time>
      </trkpt>
      <trkpt lat="45.42872" lon="4.72622">
        <ele>324</ele>
        <time>2021-05-07T15:16:19Z</time>
      </trkpt>
      <trkpt lat="45.42878" lon="4.72624">
        <ele>325</ele>
        <time>2021-05-07T15:16:21Z</time>
      </trkpt>
      <trkpt lat="45.42884" lon="4.72626">
        <ele>325</ele>
        <time>2021-05-07T15:16:23Z</time>
      </trkpt>
      <trkpt lat="45.42889" lon="4.72628">
        <ele>325</ele>
        <time>2021-05-07T15:16:25Z</time>
      </trkpt>
      <trkpt lat="45.42895" lon="4.7263">
        <ele>325</ele>
        <time>2021-05-07T15:16:27Z</time>
      </trkpt>
      <trkpt lat="45.429" lon="4.72632">
        <ele>327</ele>
        <time>2021-05-07T15:16:29Z</time>
      </trkpt>
      <trkpt lat="45.42905" lon="4.72635">
        <ele>327</ele>
        <time>2021-05-07T15:16:31Z</time>
      </trkpt>
      <trkpt lat="45.4291" lon="4.72637">
        <ele>326</ele>
        <time>2021-05-07T15:16:33Z</time>
      </trkpt>
      <trkpt lat="45.42915" lon="4.72637">
        <ele>326</ele>
        <time>2021-05-07T15:16:35Z</time>
      </trkpt>
      <trkpt lat="45.4292" lon="4.72638">
        <ele>327</ele>
        <time>2021-05-07T15:16:37Z</time>
      </trkpt>
      <trkpt lat="45.42925" lon="4.72639">
        <ele>327</ele>
        <time>2021-05-07T15:16:39Z</time>
      </trkpt>
      <trkpt lat="45.42931" lon="4.7264">
        <ele>328</ele>
        <time>2021-05-07T15:16:41Z</time>
      </trkpt>
      <trkpt lat="45.42937" lon="4.72641">
        <ele>328</ele>
        <time>2021-05-07T15:16:43Z</time>
      </trkpt>
      <trkpt lat="45.42942" lon="4.72641">
        <ele>328</ele>
        <time>2021-05-07T15:16:45Z</time>
      </trkpt>
      <trkpt lat="45.42948" lon="4.72642">
        <ele>328</ele>
        <time>2021-05-07T15:16:47Z</time>
      </trkpt>
      <trkpt lat="45.42954" lon="4.72642">
        <ele>328</ele>
        <time>2021-05-07T15:16:49Z</time>
      </trkpt>
      <trkpt lat="45.42959" lon="4.72642">
        <ele>328</ele>
        <time>2021-05-07T15:16:51Z</time>
      </trkpt>
      <trkpt lat="45.42965" lon="4.72643">
        <ele>329</ele>
        <time>2021-05-07T15:16:53Z</time>
      </trkpt>
      <trkpt lat="45.42971" lon="4.72644">
        <ele>329</ele>
        <time>2021-05-07T15:16:55Z</time>
      </trkpt>
      <trkpt lat="45.42976" lon="4.72645">
        <ele>329</ele>
        <time>2021-05-07T15:16:57Z</time>
      </trkpt>
      <trkpt lat="45.42981" lon="4.72646">
        <ele>330</ele>
        <time>2021-05-07T15:16:59Z</time>
      </trkpt>
      <trkpt lat="45.42986" lon="4.72647">
        <ele>330</ele>
        <time>2021-05-07T15:17:01Z</time>
      </trkpt>
      <trkpt lat="45.42992" lon="4.72647">
        <ele>330</ele>
        <time>2021-05-07T15:17:03Z</time>
      </trkpt>
      <trkpt lat="45.42997" lon="4.72648">
        <ele>330</ele>
        <time>2021-05-07T15:17:05Z</time>
      </trkpt>
      <trkpt lat="45.43004" lon="4.72649">
        <ele>330</ele>
        <time>2021-05-07T15:17:07Z</time>
      </trkpt>
      <trkpt lat="45.43008" lon="4.7265">
        <ele>330</ele>
        <time>2021-05-07T15:17:09Z</time>
      </trkpt>
      <trkpt lat="45.43013" lon="4.7265">
        <ele>330</ele>
        <time>2021-05-07T15:17:12Z</time>
      </trkpt>
      <trkpt lat="45.43017" lon="4.72651">
        <ele>329</ele>
        <time>2021-05-07T15:17:14Z</time>
      </trkpt>
      <trkpt lat="45.43022" lon="4.72651">
        <ele>330</ele>
        <time>2021-05-07T15:17:17Z</time>
      </trkpt>
      <trkpt lat="45.43026" lon="4.72652">
        <ele>330</ele>
        <time>2021-05-07T15:17:20Z</time>
      </trkpt>
      <trkpt lat="45.43031" lon="4.72652">
        <ele>330</ele>
        <time>2021-05-07T15:17:23Z</time>
      </trkpt>
      <trkpt lat="45.43035" lon="4.72653">
        <ele>330</ele>
        <time>2021-05-07T15:17:26Z</time>
      </trkpt>
      <trkpt lat="45.4304" lon="4.72653">
        <ele>330</ele>
        <time>2021-05-07T15:17:29Z</time>
      </trkpt>
      <trkpt lat="45.43045" lon="4.72654">
        <ele>330</ele>
        <time>2021-05-07T15:17:32Z</time>
      </trkpt>
      <trkpt lat="45.4305" lon="4.72654">
        <ele>330</ele>
        <time>2021-05-07T15:17:34Z</time>
      </trkpt>
      <trkpt lat="45.43056" lon="4.72654">
        <ele>330</ele>
        <time>2021-05-07T15:17:36Z</time>
      </trkpt>
      <trkpt lat="45.43061" lon="4.72655">
        <ele>330</ele>
        <time>2021-05-07T15:17:38Z</time>
      </trkpt>
      <trkpt lat="45.43066" lon="4.72655">
        <ele>330</ele>
        <time>2021-05-07T15:17:40Z</time>
      </trkpt>
      <trkpt lat="45.43072" lon="4.72656">
        <ele>330</ele>
        <time>2021-05-07T15:17:42Z</time>
      </trkpt>
      <trkpt lat="45.43078" lon="4.72657">
        <ele>330</ele>
        <time>2021-05-07T15:17:44Z</time>
      </trkpt>
      <trkpt lat="45.43084" lon="4.72658">
        <ele>331</ele>
        <time>2021-05-07T15:17:46Z</time>
      </trkpt>
      <trkpt lat="45.43089" lon="4.72658">
        <ele>331</ele>
        <time>2021-05-07T15:17:48Z</time>
      </trkpt>
      <trkpt lat="45.43095" lon="4.72658">
        <ele>331</ele>
        <time>2021-05-07T15:17:50Z</time>
      </trkpt>
      <trkpt lat="45.431" lon="4.72658">
        <ele>331</ele>
        <time>2021-05-07T15:17:52Z</time>
      </trkpt>
      <trkpt lat="45.43106" lon="4.72658">
        <ele>332</ele>
        <time>2021-05-07T15:17:54Z</time>
      </trkpt>
      <trkpt lat="45.43112" lon="4.72659">
        <ele>332</ele>
        <time>2021-05-07T15:17:56Z</time>
      </trkpt>
      <trkpt lat="45.43118" lon="4.72659">
        <ele>332</ele>
        <time>2021-05-07T15:17:58Z</time>
      </trkpt>
      <trkpt lat="45.43123" lon="4.72658">
        <ele>332</ele>
        <time>2021-05-07T15:18:00Z</time>
      </trkpt>
      <trkpt lat="45.43129" lon="4.72658">
        <ele>332</ele>
        <time>2021-05-07T15:18:02Z</time>
      </trkpt>
      <trkpt lat="45.43135" lon="4.72658">
        <ele>332</ele>
        <time>2021-05-07T15:18:04Z</time>
      </trkpt>
      <trkpt lat="45.4314" lon="4.72658">
        <ele>333</ele>
        <time>2021-05-07T15:18:06Z</time>
      </trkpt>
      <trkpt lat="45.43146" lon="4.72657">
        <ele>333</ele>
        <time>2021-05-07T15:18:08Z</time>
      </trkpt>
      <trkpt lat="45.43151" lon="4.72657">
        <ele>333</ele>
        <time>2021-05-07T15:18:10Z</time>
      </trkpt>
      <trkpt lat="45.43157" lon="4.72657">
        <ele>333</ele>
        <time>2021-05-07T15:18:12Z</time>
      </trkpt>
      <trkpt lat="45.43163" lon="4.72656">
        <ele>334</ele>
        <time>2021-05-07T15:18:14Z</time>
      </trkpt>
      <trkpt lat="45.43168" lon="4.72655">
        <ele>333</ele>
        <time>2021-05-07T15:18:16Z</time>
      </trkpt>
      <trkpt lat="45.43173" lon="4.72653">
        <ele>333</ele>
        <time>2021-05-07T15:18:18Z</time>
      </trkpt>
      <trkpt lat="45.43179" lon="4.72652">
        <ele>333</ele>
        <time>2021-05-07T15:18:20Z</time>
      </trkpt>
      <trkpt lat="45.43184" lon="4.7265">
        <ele>334</ele>
        <time>2021-05-07T15:18:22Z</time>
      </trkpt>
      <trkpt lat="45.43189" lon="4.72648">
        <ele>334</ele>
        <time>2021-05-07T15:18:24Z</time>
      </trkpt>
      <trkpt lat="45.43196" lon="4.72647">
        <ele>334</ele>
        <time>2021-05-07T15:18:26Z</time>
      </trkpt>
      <trkpt lat="45.43201" lon="4.72645">
        <ele>334</ele>
        <time>2021-05-07T15:18:28Z</time>
      </trkpt>
      <trkpt lat="45.43207" lon="4.72642">
        <ele>334</ele>
        <time>2021-05-07T15:18:30Z</time>
      </trkpt>
      <trkpt lat="45.43213" lon="4.7264">
        <ele>333</ele>
        <time>2021-05-07T15:18:32Z</time>
      </trkpt>
      <trkpt lat="45.43218" lon="4.72636">
        <ele>333</ele>
        <time>2021-05-07T15:18:34Z</time>
      </trkpt>
      <trkpt lat="45.43223" lon="4.72632">
        <ele>334</ele>
        <time>2021-05-07T15:18:36Z</time>
      </trkpt>
      <trkpt lat="45.43227" lon="4.72626">
        <ele>334</ele>
        <time>2021-05-07T15:18:38Z</time>
      </trkpt>
      <trkpt lat="45.43232" lon="4.72621">
        <ele>334</ele>
        <time>2021-05-07T15:18:40Z</time>
      </trkpt>
      <trkpt lat="45.43236" lon="4.72616">
        <ele>333</ele>
        <time>2021-05-07T15:18:42Z</time>
      </trkpt>
      <trkpt lat="45.4324" lon="4.72611">
        <ele>333</ele>
        <time>2021-05-07T15:18:44Z</time>
      </trkpt>
      <trkpt lat="45.43243" lon="4.72605">
        <ele>333</ele>
        <time>2021-05-07T15:18:46Z</time>
      </trkpt>
      <trkpt lat="45.43246" lon="4.72599">
        <ele>333</ele>
        <time>2021-05-07T15:18:48Z</time>
      </trkpt>
      <trkpt lat="45.43247" lon="4.72593">
        <ele>333</ele>
        <time>2021-05-07T15:18:50Z</time>
      </trkpt>
      <trkpt lat="45.43247" lon="4.72585">
        <ele>333</ele>
        <time>2021-05-07T15:18:52Z</time>
      </trkpt>
      <trkpt lat="45.43248" lon="4.72578">
        <ele>333</ele>
        <time>2021-05-07T15:18:54Z</time>
      </trkpt>
      <trkpt lat="45.43248" lon="4.7257">
        <ele>334</ele>
        <time>2021-05-07T15:18:56Z</time>
      </trkpt>
      <trkpt lat="45.43249" lon="4.72563">
        <ele>335</ele>
        <time>2021-05-07T15:18:58Z</time>
      </trkpt>
      <trkpt lat="45.4325" lon="4.72555">
        <ele>335</ele>
        <time>2021-05-07T15:19:00Z</time>
      </trkpt>
      <trkpt lat="45.43252" lon="4.72548">
        <ele>335</ele>
        <time>2021-05-07T15:19:02Z</time>
      </trkpt>
      <trkpt lat="45.43254" lon="4.72542">
        <ele>335</ele>
        <time>2021-05-07T15:19:04Z</time>
      </trkpt>
      <trkpt lat="45.43256" lon="4.72537">
        <ele>335</ele>
        <time>2021-05-07T15:19:06Z</time>
      </trkpt>
      <trkpt lat="45.43258" lon="4.72531">
        <ele>336</ele>
        <time>2021-05-07T15:19:08Z</time>
      </trkpt>
      <trkpt lat="45.43259" lon="4.72524">
        <ele>336</ele>
        <time>2021-05-07T15:19:11Z</time>
      </trkpt>
      <trkpt lat="45.4326" lon="4.72519">
        <ele>336</ele>
        <time>2021-05-07T15:19:14Z</time>
      </trkpt>
      <trkpt lat="45.43262" lon="4.72513">
        <ele>337</ele>
        <time>2021-05-07T15:19:17Z</time>
      </trkpt>
      <trkpt lat="45.43263" lon="4.72507">
        <ele>338</ele>
        <time>2021-05-07T15:19:20Z</time>
      </trkpt>
      <trkpt lat="45.43264" lon="4.725">
        <ele>338</ele>
        <time>2021-05-07T15:19:23Z</time>
      </trkpt>
      <trkpt lat="45.43264" lon="4.72494">
        <ele>339</ele>
        <time>2021-05-07T15:19:25Z</time>
      </trkpt>
      <trkpt lat="45.43264" lon="4.72488">
        <ele>339</ele>
        <time>2021-05-07T15:19:27Z</time>
      </trkpt>
      <trkpt lat="45.43264" lon="4.72482">
        <ele>339</ele>
        <time>2021-05-07T15:19:29Z</time>
      </trkpt>
      <trkpt lat="45.43262" lon="4.72476">
        <ele>340</ele>
        <time>2021-05-07T15:19:31Z</time>
      </trkpt>
      <trkpt lat="45.43261" lon="4.7247">
        <ele>340</ele>
        <time>2021-05-07T15:19:33Z</time>
      </trkpt>
      <trkpt lat="45.4326" lon="4.72464">
        <ele>341</ele>
        <time>2021-05-07T15:19:35Z</time>
      </trkpt>
      <trkpt lat="45.4326" lon="4.72457">
        <ele>341</ele>
        <time>2021-05-07T15:19:37Z</time>
      </trkpt>
      <trkpt lat="45.4326" lon="4.7245">
        <ele>341</ele>
        <time>2021-05-07T15:19:39Z</time>
      </trkpt>
      <trkpt lat="45.43262" lon="4.72444">
        <ele>341</ele>
        <time>2021-05-07T15:19:41Z</time>
      </trkpt>
      <trkpt lat="45.43265" lon="4.72439">
        <ele>341</ele>
        <time>2021-05-07T15:19:43Z</time>
      </trkpt>
      <trkpt lat="45.4327" lon="4.72438">
        <ele>342</ele>
        <time>2021-05-07T15:19:45Z</time>
      </trkpt>
      <trkpt lat="45.43274" lon="4.72436">
        <ele>343</ele>
        <time>2021-05-07T15:19:47Z</time>
      </trkpt>
      <trkpt lat="45.43279" lon="4.72435">
        <ele>343</ele>
        <time>2021-05-07T15:19:49Z</time>
      </trkpt>
      <trkpt lat="45.43283" lon="4.72431">
        <ele>343</ele>
        <time>2021-05-07T15:19:52Z</time>
      </trkpt>
      <trkpt lat="45.43282" lon="4.72426">
        <ele>344</ele>
        <time>2021-05-07T15:19:56Z</time>
      </trkpt>
      <trkpt lat="45.4328" lon="4.7242">
        <ele>344</ele>
        <time>2021-05-07T15:20:00Z</time>
      </trkpt>
      <trkpt lat="45.43277" lon="4.72416">
        <ele>345</ele>
        <time>2021-05-07T15:20:03Z</time>
      </trkpt>
      <trkpt lat="45.43276" lon="4.72412">
        <ele>346</ele>
        <time>2021-05-07T15:20:05Z</time>
      </trkpt>
      <trkpt lat="45.43273" lon="4.72406">
        <ele>346</ele>
        <time>2021-05-07T15:20:08Z</time>
      </trkpt>
      <trkpt lat="45.43272" lon="4.72401">
        <ele>345</ele>
        <time>2021-05-07T15:20:11Z</time>
      </trkpt>
      <trkpt lat="45.4327" lon="4.72396">
        <ele>346</ele>
        <time>2021-05-07T15:20:14Z</time>
      </trkpt>
      <trkpt lat="45.43271" lon="4.72391">
        <ele>347</ele>
        <time>2021-05-07T15:20:16Z</time>
      </trkpt>
      <trkpt lat="45.43273" lon="4.72384">
        <ele>347</ele>
        <time>2021-05-07T15:20:19Z</time>
      </trkpt>
      <trkpt lat="45.43276" lon="4.72379">
        <ele>347</ele>
        <time>2021-05-07T15:20:22Z</time>
      </trkpt>
      <trkpt lat="45.43279" lon="4.72373">
        <ele>348</ele>
        <time>2021-05-07T15:20:24Z</time>
      </trkpt>
      <trkpt lat="45.43283" lon="4.72368">
        <ele>348</ele>
        <time>2021-05-07T15:20:26Z</time>
      </trkpt>
      <trkpt lat="45.43286" lon="4.72364">
        <ele>349</ele>
        <time>2021-05-07T15:20:28Z</time>
      </trkpt>
      <trkpt lat="45.43289" lon="4.72358">
        <ele>349</ele>
        <time>2021-05-07T15:20:30Z</time>
      </trkpt>
      <trkpt lat="45.43293" lon="4.72352">
        <ele>349</ele>
        <time>2021-05-07T15:20:32Z</time>
      </trkpt>
      <trkpt lat="45.43296" lon="4.72347">
        <ele>349</ele>
        <time>2021-05-07T15:20:34Z</time>
      </trkpt>
      <trkpt lat="45.43299" lon="4.72342">
        <ele>349</ele>
        <time>2021-05-07T15:20:36Z</time>
      </trkpt>
      <trkpt lat="45.43301" lon="4.72336">
        <ele>350</ele>
        <time>2021-05-07T15:20:38Z</time>
      </trkpt>
      <trkpt lat="45.43303" lon="4.7233">
        <ele>351</ele>
        <time>2021-05-07T15:20:40Z</time>
      </trkpt>
      <trkpt lat="45.43305" lon="4.72324">
        <ele>351</ele>
        <time>2021-05-07T15:20:42Z</time>
      </trkpt>
      <trkpt lat="45.43306" lon="4.72318">
        <ele>351</ele>
        <time>2021-05-07T15:20:44Z</time>
      </trkpt>
      <trkpt lat="45.43309" lon="4.72312">
        <ele>352</ele>
        <time>2021-05-07T15:20:46Z</time>
      </trkpt>
      <trkpt lat="45.4331" lon="4.72305">
        <ele>352</ele>
        <time>2021-05-07T15:20:48Z</time>
      </trkpt>
      <trkpt lat="45.43312" lon="4.72298">
        <ele>352</ele>
        <time>2021-05-07T15:20:50Z</time>
      </trkpt>
      <trkpt lat="45.43313" lon="4.7229">
        <ele>353</ele>
        <time>2021-05-07T15:20:52Z</time>
      </trkpt>
      <trkpt lat="45.43315" lon="4.72282">
        <ele>353</ele>
        <time>2021-05-07T15:20:54Z</time>
      </trkpt>
      <trkpt lat="45.43318" lon="4.72273">
        <ele>353</ele>
        <time>2021-05-07T15:20:56Z</time>
      </trkpt>
      <trkpt lat="45.43323" lon="4.72268">
        <ele>353</ele>
        <time>2021-05-07T15:20:58Z</time>
      </trkpt>
      <trkpt lat="45.43329" lon="4.72265">
        <ele>353</ele>
        <time>2021-05-07T15:21:00Z</time>
      </trkpt>
      <trkpt lat="45.43335" lon="4.72263">
        <ele>353</ele>
        <time>2021-05-07T15:21:02Z</time>
      </trkpt>
      <trkpt lat="45.43341" lon="4.72263">
        <ele>353</ele>
        <time>2021-05-07T15:21:04Z</time>
      </trkpt>
      <trkpt lat="45.43347" lon="4.72262">
        <ele>353</ele>
        <time>2021-05-07T15:21:06Z</time>
      </trkpt>
      <trkpt lat="45.43352" lon="4.72262">
        <ele>353</ele>
        <time>2021-05-07T15:21:08Z</time>
      </trkpt>
      <trkpt lat="45.43358" lon="4.72263">
        <ele>353</ele>
        <time>2021-05-07T15:21:10Z</time>
      </trkpt>
      <trkpt lat="45.43364" lon="4.72265">
        <ele>353</ele>
        <time>2021-05-07T15:21:12Z</time>
      </trkpt>
      <trkpt lat="45.4337" lon="4.72266">
        <ele>353</ele>
        <time>2021-05-07T15:21:14Z</time>
      </trkpt>
      <trkpt lat="45.43376" lon="4.72266">
        <ele>352</ele>
        <time>2021-05-07T15:21:16Z</time>
      </trkpt>
      <trkpt lat="45.43383" lon="4.72268">
        <ele>353</ele>
        <time>2021-05-07T15:21:18Z</time>
      </trkpt>
      <trkpt lat="45.43389" lon="4.7227">
        <ele>353</ele>
        <time>2021-05-07T15:21:20Z</time>
      </trkpt>
      <trkpt lat="45.43394" lon="4.7227">
        <ele>353</ele>
        <time>2021-05-07T15:21:22Z</time>
      </trkpt>
      <trkpt lat="45.43399" lon="4.7227">
        <ele>353</ele>
        <time>2021-05-07T15:21:24Z</time>
      </trkpt>
      <trkpt lat="45.43404" lon="4.72271">
        <ele>353</ele>
        <time>2021-05-07T15:21:26Z</time>
      </trkpt>
      <trkpt lat="45.4341" lon="4.72271">
        <ele>353</ele>
        <time>2021-05-07T15:21:28Z</time>
      </trkpt>
      <trkpt lat="45.43416" lon="4.72273">
        <ele>353</ele>
        <time>2021-05-07T15:21:30Z</time>
      </trkpt>
      <trkpt lat="45.43422" lon="4.72274">
        <ele>352</ele>
        <time>2021-05-07T15:21:32Z</time>
      </trkpt>
      <trkpt lat="45.43427" lon="4.72275">
        <ele>353</ele>
        <time>2021-05-07T15:21:34Z</time>
      </trkpt>
      <trkpt lat="45.43432" lon="4.72274">
        <ele>354</ele>
        <time>2021-05-07T15:21:36Z</time>
      </trkpt>
      <trkpt lat="45.43436" lon="4.72274">
        <ele>355</ele>
        <time>2021-05-07T15:21:41Z</time>
      </trkpt>
      <trkpt lat="45.43434" lon="4.72275">
        <ele>355</ele>
        <time>2021-05-07T15:21:45Z</time>
      </trkpt>
    </trkseg>
  </trk>
</gpx>